YYYY MM/DD hh:mm	Temp	Humid	W_dir	W_spd	Barom	T_int	Light	Power	Temp2	P2	Snow	T_mid	T_base	Precip
Year Date  Time 	(F)	(%)	(Deg)	(MPH)	("Hg)	(F)	/1000	(V)	(F)	-	(")	(F)	(F)	(")
2021 02/24 00:00	19.0	97.5	291.0	14.8	30.12	49.8	0.0	13.01	-137.6	0	91.2	20.9	27.1	0	0	0	0	0	33.6	32.9	0.0
2021 02/24 00:15	18.3	97.1	32.3	14.9	30.13	49.7	0.0	13.00	-137.6	0	93.7	20.0	27.0	0	0	0	0	0	33.6	32.9	0.0
2021 02/24 00:30	17.0	96.4	282.6	13.4	30.14	49.7	0.0	13.00	-137.6	0	93.6	18.2	25.1	0	0	0	0	0	33.3	32.9	0.0
2021 02/24 00:45	16.4	96.3	317.2	13.9	30.15	49.6	0.0	13.00	-137.6	0	93.7	18.2	23.6	0	0	0	0	0	33.2	32.9	0.0
2021 02/24 01:00	16.7	96.4	346.9	8.8	30.15	49.5	0.0	13.02	-137.6	0	93.4	19.1	24.6	0	0	0	0	0	33.1	32.7	0.0
2021 02/24 01:15	16.8	96.3	272.8	8.1	30.16	49.4	0.0	13.02	-137.6	0	93.5	19.1	24.3	0	0	0	0	0	32.9	32.7	0.0
2021 02/24 01:30	16.7	96.3	314.2	13.4	30.16	49.3	0.0	13.02	-137.6	0	93.4	19.1	24.0	0	0	0	0	0	32.7	32.7	0.0
2021 02/24 01:45	16.6	96.2	286.2	9.7	30.16	49.2	0.0	13.02	-137.7	0	93.4	19.1	24.1	0	0	0	0	0	32.7	32.7	0.0
2021 02/24 02:00	16.7	96.3	267.6	16.1	30.15	49.1	0.0	13.02	-137.7	0	93.2	19.1	25.4	0	0	0	0	0	32.6	32.6	0.0
2021 02/24 02:15	16.8	96.4	264.9	15.7	30.15	48.9	0.0	13.02	-137.7	0	92.9	19.1	25.0	0	0	0	0	0	32.5	32.6	0.0
2021 02/24 02:30	16.9	96.4	265.6	13.7	30.15	48.8	0.0	13.02	-137.7	0	-999.9	-999.9	24.9	0	0	0	0	0	32.4	32.6	0.0
2021 02/24 02:45	17.2	96.6	305.5	11.9	30.15	48.8	0.0	13.00	-137.7	0	92.6	19.1	24.5	0	0	0	0	0	32.3	32.5	0.0
2021 02/24 03:00	17.2	96.5	270.6	15.2	30.15	48.7	0.0	13.00	-137.7	0	-999.9	-999.9	24.8	0	0	0	0	0	32.2	32.5	0.0
2021 02/24 03:15	17.3	96.7	249.9	18.5	30.14	48.6	0.0	13.02	-137.7	0	91.3	20.0	24.9	0	0	0	0	0	32.1	32.5	0.0
2021 02/24 03:30	17.7	96.7	290.9	16.7	30.15	48.5	0.0	13.01	-137.7	0	-999.9	-999.9	25.0	0	0	0	0	0	32.0	32.4	0.0
2021 02/24 03:45	17.8	96.8	265.2	13.4	30.15	48.5	0.0	13.01	-137.7	0	91.2	20.0	25.1	0	0	0	0	0	32.0	32.4	0.0
2021 02/24 04:00	17.9	96.9	260.9	15.2	30.16	48.3	0.0	12.99	-137.7	0	-999.9	-999.9	25.5	0	0	0	0	0	32.0	32.4	0.0
2021 02/24 04:15	18.0	96.9	262.8	15.3	30.16	48.2	0.0	13.02	-137.7	0	-999.9	-999.9	25.8	0	0	0	0	0	31.8	32.3	0.0
2021 02/24 04:30	18.1	97.0	267.7	12.5	30.17	48.2	0.0	13.00	-137.7	0	-999.9	-999.9	25.8	0	0	0	0	0	31.7	32.3	0.0
2021 02/24 04:45	18.1	96.9	293.6	9.4	30.18	48.1	0.0	13.01	-137.7	0	-999.9	-999.9	25.5	0	0	0	0	0	31.7	32.3	0.0
2021 02/24 05:00	18.3	97.0	266.7	10.5	30.18	48.1	0.0	13.00	-137.7	0	92.1	20.0	25.4	0	0	0	0	0	31.6	32.3	0.0
2021 02/24 05:15	18.3	97.0	303.2	10.1	30.18	48.0	0.0	13.01	-137.7	0	90.5	20.9	25.2	0	0	0	0	0	31.6	32.3	0.0
2021 02/24 05:30	18.3	97.0	301.1	12.1	30.18	48.0	1.4	12.99	-137.7	0	91.9	20.0	25.2	0	0	0	0	0	31.5	32.2	0.0
2021 02/24 05:45	19.5	97.6	320.3	10.4	30.19	47.9	0.0	13.00	-137.7	0	90.7	20.0	25.4	0	0	0	0	0	31.5	32.2	0.0
2021 02/24 06:00	18.1	97.0	289.0	10.1	30.20	47.9	0.0	13.02	-137.7	0	90.6	20.0	25.7	0	0	0	0	0	31.5	32.2	0.0
2021 02/24 06:15	18.1	96.9	307.3	6.8	30.20	47.8	0.0	12.99	-137.7	0	90.3	20.0	25.8	0	0	0	0	0	31.5	32.2	0.0
2021 02/24 06:30	18.0	96.9	308.7	12.2	30.20	47.8	1.4	13.00	-137.7	0	90.3	20.0	25.7	0	0	0	0	0	31.5	32.1	0.0
2021 02/24 06:45	17.9	96.8	313.2	8.2	30.21	47.7	23.4	13.02	-137.7	0	-999.9	-999.9	25.3	0	0	0	0	0	31.4	32.1	0.0
2021 02/24 07:00	18.0	97.4	312.4	10.5	30.22	47.6	128.3	13.00	-137.7	0	92.5	20.0	26.1	0	0	0	0	0	31.4	32.1	0.0
2021 02/24 07:15	17.8	96.8	340.5	11.2	30.22	47.6	295.9	12.99	-137.7	0	92.8	20.9	26.2	0	0	0	0	0	31.4	32.1	0.0
2021 02/24 07:30	17.2	96.4	349.5	14.8	30.22	47.6	477.4	12.99	-137.7	0	93.8	20.0	24.8	0	0	0	0	0	31.3	32.1	0.0
2021 02/24 07:45	16.6	96.2	6.8	13.9	30.23	47.5	555.1	13.00	-137.7	0	92.7	19.1	24.1	0	0	0	0	0	31.3	32.0	0.0
2021 02/24 08:00	16.6	96.2	16.6	6.5	30.23	47.4	609.1	13.00	-137.7	0	93.0	19.1	23.1	0	0	0	0	0	31.3	32.0	0.0
2021 02/24 08:15	17.2	96.6	127.6	4.0	30.24	47.4	640.0	13.02	-137.7	0	92.7	20.0	22.1	0	0	0	0	0	31.2	32.0	0.0
2021 02/24 08:30	18.0	96.9	84.3	12.2	30.24	47.4	660.7	13.02	-137.7	0	93.3	20.9	23.6	0	0	0	0	0	31.2	32.0	0.0
2021 02/24 08:45	17.3	96.4	83.7	20.2	30.25	47.4	675.9	13.01	-137.7	0	93.6	20.9	26.9	0	0	0	0	0	31.5	31.8	0.0
2021 02/24 09:00	17.3	96.4	91.2	21.5	30.25	47.4	688.2	13.00	-137.7	0	93.3	21.8	28.1	0	0	0	0	0	31.8	31.8	0.0
2021 02/24 09:15	17.5	96.4	86.8	24.0	30.25	47.4	697.0	12.98	-137.7	0	93.3	21.8	28.6	0	0	0	0	0	32.3	31.8	0.0
2021 02/24 09:30	16.8	96.3	97.8	27.5	30.25	47.4	702.0	13.01	-137.7	0	93.0	24.5	29.3	0	0	0	0	0	32.9	31.8	0.0
2021 02/24 09:45	16.2	96.0	89.4	29.5	30.25	47.4	709.0	12.98	-137.7	0	92.7	25.4	29.0	0	0	0	0	0	33.2	31.8	0.0
2021 02/24 10:00	16.7	96.2	98.2	34.5	30.25	47.3	711.0	12.98	-137.7	0	93.1	25.4	29.3	0	0	0	0	0	33.7	31.8	0.0
2021 02/24 10:15	17.7	96.9	90.4	31.2	30.25	47.2	715.0	13.01	-137.7	0	93.2	24.5	30.0	0	0	0	0	0	34.4	31.8	0.0
2021 02/24 10:30	18.3	97.0	100.5	31.8	30.26	47.2	717.0	13.00	-137.7	0	93.2	24.5	30.3	0	0	0	0	0	35.3	32.0	0.0
2021 02/24 10:45	18.6	97.2	95.3	29.8	30.26	47.2	720.0	12.98	-137.7	0	93.6	23.6	30.8	0	0	0	0	0	36.3	32.0	0.0
2021 02/24 11:00	18.8	97.0	93.3	29.4	30.27	47.4	704.0	13.00	-137.7	0	93.6	24.5	32.4	0	0	0	0	0	37.4	32.0	0.0
2021 02/24 11:15	19.0	97.2	86.2	25.9	30.29	47.7	706.0	13.01	-137.7	0	94.0	25.4	31.7	0	0	0	0	0	38.7	32.1	0.0
2021 02/24 11:30	19.3	97.3	93.5	17.5	30.30	48.2	678.7	13.01	-137.7	0	94.3	25.4	33.3	0	0	0	0	0	39.5	32.2	0.0
2021 02/24 11:45	19.5	97.3	103.9	28.6	30.30	48.8	696.3	13.00	-137.6	0	94.2	26.3	33.4	0	0	0	0	0	40.0	32.2	0.0
2021 02/24 12:00	19.6	97.4	80.9	30.1	30.30	49.4	703.0	12.99	-137.6	0	94.1	28.1	34.3	0	0	0	0	0	41.0	32.3	0.0
2021 02/24 12:15	20.0	97.5	80.9	34.5	30.30	50.1	719.0	12.99	-137.6	0	93.9	29.0	34.0	0	0	0	0	0	41.9	32.4	0.0
2021 02/24 12:30	20.7	97.8	93.1	24.4	30.31	50.7	720.0	12.99	-137.5	0	93.3	29.9	35.4	0	0	0	0	0	42.6	32.4	0.0
2021 02/24 12:45	21.3	98.2	76.3	25.4	30.31	51.6	714.0	12.99	-137.5	0	93.9	29.9	36.0	0	0	0	0	0	43.3	32.5	0.0
2021 02/24 13:00	21.4	98.1	89.8	32.1	30.32	52.3	702.0	13.00	-137.5	0	93.9	29.9	36.1	0	0	0	0	0	44.0	32.6	0.0
2021 02/24 13:15	21.6	97.9	79.6	19.6	30.33	53.1	687.4	13.01	-137.3	0	93.6	30.8	36.3	0	0	0	0	0	44.4	32.7	0.0
2021 02/24 13:30	22.1	95.1	94.6	28.4	30.34	53.9	658.9	12.99	-137.2	0	93.7	30.8	36.4	0	0	0	0	0	44.9	32.9	0.0
2021 02/24 13:45	22.3	94.9	90.9	19.8	30.35	54.6	642.9	13.02	-137.2	0	93.7	31.7	37.9	0	0	0	0	0	44.9	32.9	0.0
2021 02/24 14:00	22.9	92.8	121.7	25.9	30.36	55.4	629.0	13.01	-137.1	0	93.7	32.6	38.0	0	0	0	0	0	45.0	33.0	0.0
2021 02/24 14:15	23.6	91.9	93.7	22.2	30.37	56.2	603.2	13.00	-137.0	0	93.7	32.6	38.1	0	0	0	0	0	45.2	33.1	0.0
2021 02/24 14:30	23.8	91.2	138.5	19.1	30.39	56.9	585.6	13.01	-136.9	0	93.7	32.6	38.0	0	0	0	0	0	45.3	33.2	0.0
2021 02/24 14:45	24.0	90.0	113.7	18.7	30.40	57.8	571.6	13.00	-136.6	0	93.8	32.6	38.9	0	0	0	0	0	45.8	33.3	0.0
2021 02/24 15:00	25.2	88.5	115.2	19.5	30.41	58.5	557.0	13.03	-136.5	0	93.7	33.5	39.8	0	0	0	0	0	45.9	33.3	0.0
2021 02/24 15:15	24.5	88.3	107.6	15.9	30.42	59.2	541.1	13.01	-136.2	0	93.9	32.6	39.8	0	0	0	0	0	46.1	33.4	0.0
2021 02/24 15:30	24.7	85.1	164.8	15.7	30.44	60.1	520.4	12.99	-136.0	0	93.8	33.5	36.9	0	0	0	0	0	46.1	33.5	0.0
2021 02/24 15:45	25.0	83.0	124.8	19.5	30.45	60.7	503.1	12.99	-135.7	0	93.8	32.6	35.1	0	0	0	0	0	46.2	33.5	0.0
2021 02/24 16:00	25.1	84.3	98.0	12.6	30.46	61.1	433.5	13.03	-135.6	0	93.4	32.6	35.0	0	0	0	0	0	46.0	33.5	0.0
2021 02/24 16:15	25.2	81.5	102.3	14.7	30.46	61.6	411.5	13.00	-135.6	0	93.8	30.8	34.4	0	0	0	0	0	45.8	33.5	0.0
2021 02/24 16:30	25.3	79.6	122.8	15.4	30.46	61.8	393.8	13.02	-135.6	0	93.8	29.9	34.2	0	0	0	0	0	45.5	33.5	0.0
2021 02/24 16:45	25.3	75.1	117.6	16.2	30.46	62.0	370.1	13.01	-135.6	0	93.8	29.0	33.3	0	0	0	0	0	45.1	33.5	0.0
2021 02/24 17:00	25.3	72.5	125.6	15.3	30.46	62.0	331.4	13.00	-135.6	0	93.7	28.1	32.3	0	0	0	0	0	44.5	33.4	0.0
2021 02/24 17:15	25.4	69.4	120.5	19.2	30.44	61.8	279.9	13.00	-135.7	0	93.8	27.2	31.1	0	0	0	0	0	44.1	33.4	0.0
2021 02/24 17:30	25.3	68.5	139.4	18.0	30.44	61.7	192.0	13.01	-135.9	0	93.6	26.3	29.6	0	0	0	0	0	43.5	33.4	0.0
2021 02/24 17:45	25.3	66.8	113.6	24.2	30.44	61.4	88.9	12.99	-136.0	0	93.6	26.3	27.7	0	0	0	0	0	43.3	33.4	0.0
2021 02/24 18:00	25.3	66.2	94.3	19.1	30.43	61.0	14.3	13.00	-136.2	0	93.5	25.4	26.1	0	0	0	0	0	42.6	33.3	0.0
2021 02/24 18:15	26.3	63.5	118.6	18.4	30.43	60.6	0.7	12.99	-136.4	0	93.7	25.4	26.0	0	0	0	0	0	42.1	33.3	0.0
2021 02/24 18:30	25.3	57.5	110.8	21.9	30.43	60.2	0.0	13.01	-136.5	0	93.5	25.4	24.5	0	0	0	0	0	41.5	33.2	0.0
2021 02/24 18:45	25.5	56.7	109.6	19.6	30.42	59.8	0.0	13.01	-136.6	0	93.5	25.4	23.0	0	0	0	0	0	40.8	33.2	0.0
2021 02/24 19:00	25.3	56.7	121.2	20.0	30.42	59.3	0.0	13.02	-136.7	0	93.6	25.4	21.8	0	0	0	0	0	40.3	33.1	0.0
2021 02/24 19:15	25.2	57.4	107.2	15.7	30.42	58.9	0.0	13.01	-136.9	0	93.4	25.4	21.0	0	0	0	0	0	39.6	33.0	0.0
2021 02/24 19:30	25.2	56.2	109.1	16.1	30.41	58.4	0.0	13.02	-137.0	0	93.6	25.4	19.9	0	0	0	0	0	38.9	32.9	0.0
2021 02/24 19:45	25.5	54.9	109.1	14.7	30.41	57.9	0.0	12.99	-137.1	0	93.6	24.5	19.5	0	0	0	0	0	38.6	32.9	0.0
2021 02/24 20:00	26.7	55.6	111.5	7.8	30.40	57.4	0.0	13.03	-137.1	0	93.6	23.6	18.6	0	0	0	0	0	38.0	32.7	0.0
2021 02/24 20:15	25.8	54.1	105.6	5.9	30.40	56.9	0.0	13.03	-137.2	0	93.6	23.6	18.0	0	0	0	0	0	37.5	32.6	0.0
2021 02/24 20:30	26.3	49.3	175.6	7.7	30.39	56.5	0.0	13.01	-137.2	0	93.4	25.4	17.7	0	0	0	0	0	36.9	32.5	0.0
2021 02/24 20:45	26.7	49.9	180.9	6.5	30.39	56.1	0.0	13.03	-137.2	0	93.4	23.6	17.2	0	0	0	0	0	36.3	32.3	0.0
2021 02/24 21:00	27.2	49.5	175.6	4.4	30.38	55.9	0.0	13.03	-137.3	0	93.4	22.7	17.1	0	0	0	0	0	35.7	32.3	0.0
2021 02/24 21:15	27.7	45.1	208.8	8.1	30.37	55.4	0.0	13.02	-137.3	0	93.4	22.7	16.1	0	0	0	0	0	35.2	32.2	0.0
2021 02/24 21:30	29.0	37.2	208.2	14.9	30.36	55.0	0.7	13.00	-137.3	0	93.4	22.7	15.6	0	0	0	0	0	34.8	32.1	0.0
2021 02/24 21:45	30.0	31.9	200.1	21.3	30.34	54.6	0.0	13.01	-137.3	0	93.7	22.7	16.2	0	0	0	0	0	34.4	32.1	0.0
2021 02/24 22:00	30.1	30.1	199.2	22.7	30.33	54.3	0.0	13.01	-137.5	0	93.2	24.5	16.0	0	0	0	0	0	34.0	32.0	0.0
2021 02/24 22:15	29.4	33.9	201.0	18.2	30.33	53.9	0.0	13.00	-137.5	0	93.2	28.1	15.8	0	0	0	0	0	33.5	31.7	0.0
2021 02/24 22:30	29.6	33.0	226.1	20.0	30.32	53.5	0.0	13.01	-137.5	0	93.3	27.2	16.4	0	0	0	0	0	33.2	31.7	0.0
2021 02/24 22:45	29.4	34.3	222.7	18.5	30.31	53.1	0.0	13.00	-137.5	0	93.4	27.2	16.2	0	0	0	0	0	33.0	31.6	0.0
2021 02/24 23:00	28.6	36.8	217.5	25.4	30.28	52.6	0.0	13.01	-137.5	0	93.2	26.3	19.0	0	0	0	0	0	32.7	31.5	0.0
2021 02/24 23:15	28.5	38.1	185.8	26.2	30.26	52.4	0.0	13.01	-137.6	0	93.3	26.3	20.6	0	0	0	0	0	32.5	31.4	0.0
2021 02/24 23:30	28.6	35.7	179.7	26.7	30.26	52.0	0.0	13.01	-137.6	0	92.9	28.1	25.9	0	0	0	0	0	32.4	31.4	0.0
2021 02/24 23:45	29.1	34.1	221.3	26.0	30.25	51.6	0.0	12.99	-137.6	0	93.2	29.0	31.5	0	0	0	0	0	32.3	31.4	0.0
2021 02/25 00:00	29.5	33.4	217.0	29.8	30.24	51.1	0.0	13.01	-137.6	0	93.1	29.0	33.9	0	0	0	0	0	32.2	31.3	0.0
2021 02/25 00:15	29.6	32.6	231.2	24.0	30.25	50.8	0.0	12.98	-137.6	0	93.3	29.0	32.5	0	0	0	0	0	32.0	31.3	0.0
2021 02/25 00:30	28.9	34.0	229.3	27.5	30.23	50.5	0.0	13.02	-137.6	0	93.3	29.0	31.8	0	0	0	0	0	32.0	31.2	0.0
2021 02/25 00:45	28.5	35.8	235.3	28.8	30.21	50.3	0.0	13.01	-137.6	0	93.1	29.9	34.0	0	0	0	0	0	32.0	31.2	0.0
2021 02/25 01:00	29.3	31.0	225.6	30.8	30.20	49.9	0.0	13.02	-137.6	0	93.1	29.9	34.4	0	0	0	0	0	32.0	31.3	0.0
2021 02/25 01:15	29.0	32.0	223.6	29.2	30.19	49.7	0.0	13.00	-137.6	0	93.3	29.0	33.5	0	0	0	0	0	31.8	31.2	0.0
2021 02/25 01:30	29.5	33.0	242.8	21.1	30.19	49.4	0.0	13.01	-137.7	0	93.2	27.2	31.1	0	0	0	0	0	31.8	31.2	0.0
2021 02/25 01:45	29.6	33.5	232.2	21.3	30.18	49.2	0.0	13.00	-137.7	0	93.1	28.1	29.9	0	0	0	0	0	31.8	31.2	0.0
2021 02/25 02:00	31.1	32.2	242.1	26.7	30.18	49.1	0.0	13.02	-137.7	0	93.1	26.3	29.9	0	0	0	0	0	31.8	31.2	0.0
2021 02/25 02:15	29.4	35.1	244.3	23.8	30.17	48.9	0.0	13.00	-137.7	0	93.2	29.0	29.4	0	0	0	0	0	31.8	31.2	0.0
2021 02/25 02:30	28.9	37.3	240.5	23.2	30.16	48.9	0.0	13.01	-137.7	0	92.8	29.0	30.7	0	0	0	0	0	31.7	31.2	0.0
2021 02/25 02:45	28.6	39.8	269.1	25.6	30.16	48.8	0.0	12.99	-137.7	0	93.1	30.8	31.5	0	0	0	0	0	31.7	31.2	0.0
2021 02/25 03:00	28.2	44.4	242.9	22.9	30.15	48.8	0.0	13.02	-137.7	0	93.1	29.9	32.5	0	0	0	0	0	31.6	31.2	0.0
2021 02/25 03:15	28.4	45.2	266.0	26.5	30.14	48.7	0.0	12.99	-137.7	0	93.1	29.9	33.0	0	0	0	0	0	31.6	31.2	0.0
2021 02/25 03:30	28.0	47.0	187.2	27.9	30.14	48.8	0.0	13.00	-137.7	0	93.1	29.0	32.4	0	0	0	0	0	31.6	31.2	0.0
2021 02/25 03:45	27.3	51.2	248.2	25.5	30.14	48.7	0.0	13.00	-137.7	0	93.2	29.0	31.7	0	0	0	0	0	31.5	31.2	0.0
2021 02/25 04:00	26.8	55.0	196.0	25.9	30.13	48.8	0.0	12.99	-137.7	0	93.0	28.1	33.5	0	0	0	0	0	31.5	31.3	0.0
2021 02/25 04:15	27.1	60.7	269.3	30.6	30.13	48.8	0.0	12.99	-137.7	0	92.9	27.2	32.4	0	0	0	0	0	31.5	x.x	0.0
2021 02/25 04:30	25.0	69.0	289.6	31.8	30.12	48.8	0.0	13.01	-137.7	0	92.7	27.2	33.4	0	0	0	0	0	31.5	31.3	0.0
2021 02/25 04:45	25.4	67.0	253.5	32.9	30.09	48.8	0.0	13.00	-137.7	0	92.9	27.2	32.3	0	0	0	0	0	31.5	31.3	0.0
2021 02/25 05:00	25.1	66.2	252.4	37.9	30.08	48.8	0.0	12.99	-137.7	0	92.9	27.2	33.2	0	0	0	0	0	31.5	31.3	0.0
2021 02/25 05:15	24.9	70.0	225.9	39.3	30.05	48.8	0.0	13.02	-137.7	0	90.6	27.2	31.2	0	0	0	0	0	31.5	31.3	0.0
2021 02/25 05:30	24.1	71.2	233.1	34.6	30.05	48.8	0.0	12.99	-137.7	0	91.2	26.3	31.8	0	0	0	0	0	31.5	31.3	0.0
2021 02/25 05:45	24.0	70.6	243.2	38.9	30.04	48.7	0.0	12.98	-137.7	0	91.2	26.3	31.3	0	0	0	0	0	31.5	31.3	0.0
2021 02/25 06:00	23.9	74.7	259.0	33.9	30.05	48.7	0.0	12.99	-137.7	0	92.5	26.3	32.8	0	0	0	0	0	31.5	31.3	0.0
2021 02/25 06:15	23.0	79.1	242.5	34.4	30.06	48.7	0.0	13.00	-137.7	0	92.7	26.3	31.4	0	0	0	0	0	31.6	31.3	0.0
2021 02/25 06:30	21.7	90.9	241.8	34.2	30.05	48.7	0.7	13.01	-137.7	0	92.7	24.5	30.0	0	0	0	0	0	31.6	31.3	0.0
2021 02/25 06:45	21.2	97.0	237.5	36.7	30.05	48.6	11.9	13.01	-137.7	0	91.5	23.6	30.6	0	0	0	0	0	31.5	31.3	0.0
2021 02/25 07:00	21.1	98.1	229.6	31.8	30.05	48.6	43.4	13.00	-137.6	0	92.1	23.6	29.3	0	0	0	0	0	31.6	31.3	0.0
2021 02/25 07:15	20.8	97.8	226.4	33.2	30.04	48.6	86.2	13.01	-137.7	0	92.5	22.7	29.1	0	0	0	0	0	31.6	31.3	0.0
2021 02/25 07:30	20.8	97.8	230.2	38.1	30.03	48.6	234.1	13.00	-137.7	0	92.7	23.6	29.8	0	0	0	0	0	31.6	31.3	0.0
2021 02/25 07:45	21.1	97.7	231.3	42.6	30.02	48.6	354.6	13.01	-137.7	0	91.9	23.6	29.8	0	0	0	0	0	31.5	31.3	0.0
2021 02/25 08:00	20.9	97.7	233.2	40.5	30.02	48.5	312.9	13.00	-137.7	0	90.4	23.6	30.2	0	0	0	0	0	31.5	31.3	0.0
2021 02/25 08:15	21.2	97.9	214.3	38.6	30.02	48.5	427.2	13.00	-137.7	0	92.7	24.5	30.8	0	0	0	0	0	31.5	31.3	0.0
2021 02/25 08:30	21.4	98.0	238.8	36.5	30.02	48.2	492.4	13.01	-137.7	0	92.7	24.5	31.2	0	0	0	0	0	31.6	31.4	0.0
2021 02/25 08:45	21.7	98.0	238.0	31.9	30.04	48.1	461.1	12.98	-137.7	0	92.5	24.5	31.3	0	0	0	0	0	31.6	31.4	0.0
2021 02/25 09:00	22.1	98.2	232.2	33.4	30.03	48.1	482.2	13.00	-137.7	0	-999.9	-999.9	32.4	0	0	0	0	0	31.7	31.4	0.0
2021 02/25 09:15	22.5	98.3	231.7	30.9	30.04	48.0	505.3	12.98	-137.7	0	92.9	25.4	32.3	0	0	0	0	0	31.8	31.4	0.0
2021 02/25 09:30	23.0	98.7	242.1	30.0	30.05	48.0	479.5	12.99	-137.7	0	92.9	25.4	32.5	0	0	0	0	0	32.1	31.4	0.0
2021 02/25 09:45	23.6	99.2	231.2	31.1	30.05	48.1	515.4	13.00	-137.7	0	91.6	26.3	33.0	0	0	0	0	0	32.2	31.4	0.0
2021 02/25 10:00	25.7	100.1	249.2	32.0	30.05	48.2	591.4	13.02	-137.7	0	92.7	27.2	35.1	0	0	0	0	0	32.5	31.4	0.0
2021 02/25 10:15	24.3	99.1	231.8	31.6	30.03	48.5	600.6	13.00	-137.7	0	90.6	27.2	35.9	0	0	0	0	0	32.9	31.5	0.0
2021 02/25 10:30	24.9	99.6	250.1	33.1	30.03	48.9	620.3	13.01	-137.6	0	92.0	28.1	35.7	0	0	0	0	0	33.1	31.5	0.0
2021 02/25 10:45	26.3	100.4	240.9	35.4	30.05	49.1	587.3	13.01	-137.6	0	92.3	28.1	35.5	0	0	0	0	0	33.1	31.5	0.0
2021 02/25 11:00	25.4	99.8	257.1	26.4	30.05	49.6	558.1	12.99	-137.6	0	92.5	28.1	37.7	0	0	0	0	0	33.4	31.5	0.0
2021 02/25 11:15	25.5	99.7	236.9	29.3	30.06	50.1	618.8	12.99	-137.6	0	92.5	28.1	36.3	0	0	0	0	0	33.6	31.6	0.0
2021 02/25 11:30	25.6	99.7	227.9	32.4	30.06	50.5	610.0	13.00	-137.6	0	92.5	28.1	36.3	0	0	0	0	0	33.9	31.6	0.0
2021 02/25 11:45	25.8	99.9	263.3	32.6	30.06	51.1	612.0	13.00	-137.6	0	92.0	29.0	36.2	0	0	0	0	0	34.1	31.6	0.0
2021 02/25 12:00	25.6	99.7	296.6	23.9	30.07	51.8	543.5	13.02	-137.5	0	91.8	28.1	39.0	0	0	0	0	0	34.3	31.6	0.0
2021 02/25 12:15	25.6	99.8	245.6	27.3	30.07	52.4	564.5	13.02	-137.5	0	92.1	28.1	36.0	0	0	0	0	0	34.3	31.7	0.0
2021 02/25 12:30	25.7	99.9	271.4	32.0	30.07	53.1	650.7	13.01	-137.5	0	90.3	28.1	35.2	0	0	0	0	0	34.4	31.7	0.0
2021 02/25 12:45	25.3	99.7	281.2	24.7	30.07	53.7	527.2	13.02	-137.3	0	92.4	27.2	35.0	0	0	0	0	0	34.4	31.7	0.0
2021 02/25 13:00	24.6	99.3	283.2	30.4	30.06	54.4	553.0	13.01	-137.2	0	91.2	28.1	36.6	0	0	0	0	0	34.4	31.8	0.0
2021 02/25 13:15	24.6	99.4	253.4	31.9	30.06	54.8	584.6	13.02	-137.2	0	91.3	28.1	36.7	0	0	0	0	0	34.8	31.8	0.0
2021 02/25 13:30	24.4	99.3	287.5	31.5	30.07	55.2	516.0	13.01	-137.2	0	92.5	27.2	36.8	0	0	0	0	0	34.8	31.8	0.0
2021 02/25 13:45	24.0	99.1	299.5	31.9	30.07	55.6	631.7	13.00	-137.1	0	92.6	28.1	37.2	0	0	0	0	0	35.0	32.0	0.0
2021 02/25 14:00	24.6	99.6	271.1	28.9	30.12	56.1	557.1	13.01	-137.1	0	91.3	27.2	34.4	0	0	0	0	0	35.1	31.8	0.0
2021 02/25 14:15	24.9	99.5	257.2	29.9	30.07	56.3	523.5	13.01	-137.1	0	-999.9	-999.9	36.8	0	0	0	0	0	35.1	32.0	0.0
2021 02/25 14:30	24.7	99.4	253.2	34.9	30.06	56.5	495.3	13.00	-137.1	0	-999.9	-999.9	36.8	0	0	0	0	0	35.0	32.0	0.0
2021 02/25 14:45	24.2	99.1	288.9	39.5	30.06	56.7	523.2	12.99	-137.1	0	92.5	27.2	33.3	0	0	0	0	0	35.1	32.1	0.0
2021 02/25 15:00	24.1	99.2	265.6	34.8	30.08	56.9	438.3	13.00	-137.1	0	-999.9	26.3	33.9	0	0	0	0	0	35.0	32.0	0.0
2021 02/25 15:15	24.0	99.2	292.9	26.8	30.09	57.1	405.4	13.00	-137.0	0	92.1	26.3	33.2	0	0	0	0	0	34.9	32.1	0.0
2021 02/25 15:30	23.5	98.6	268.0	33.8	30.10	57.1	341.6	13.01	-137.0	0	91.6	26.3	34.0	0	0	0	0	0	35.0	32.1	0.0
2021 02/25 15:45	23.8	99.2	293.3	32.2	30.10	57.4	353.9	13.00	-137.0	0	92.3	25.4	32.5	0	0	0	0	0	34.9	32.1	0.0
2021 02/25 16:00	23.1	98.8	230.9	27.3	30.11	57.6	337.6	12.99	-137.0	0	-999.9	-999.9	32.8	0	0	0	0	0	34.9	32.1	0.0
2021 02/25 16:15	23.1	98.7	282.9	35.4	30.11	57.8	336.9	13.01	-137.0	0	91.8	25.4	32.1	0	0	0	0	0	34.9	32.1	0.0
2021 02/25 16:30	22.8	98.5	10.2	27.2	30.11	58.0	400.0	13.01	-136.9	0	-999.9	-999.9	32.2	0	0	0	0	0	34.9	32.1	0.0
2021 02/25 16:45	22.8	98.5	277.5	32.1	30.12	58.2	269.0	13.01	-136.9	0	93.6	24.5	31.7	0	0	0	0	0	34.9	32.2	0.0
2021 02/25 17:00	22.5	98.3	267.0	32.5	30.10	58.4	204.6	13.01	-136.9	0	92.5	24.5	32.1	0	0	0	0	0	34.8	32.1	0.0
2021 02/25 17:15	22.8	98.5	248.9	35.3	30.10	58.6	272.4	13.00	-136.8	0	91.0	24.5	33.4	0	0	0	0	0	34.7	32.1	0.0
2021 02/25 17:30	22.8	98.5	222.6	40.7	30.10	58.6	88.2	13.01	-136.9	0	94.0	24.5	31.2	0	0	0	0	0	34.5	32.1	0.0
2021 02/25 17:45	22.9	98.5	234.4	37.2	30.07	58.7	42.8	13.00	-136.9	0	93.8	24.5	33.2	0	0	0	0	0	34.4	32.1	0.0
2021 02/25 18:00	23.0	98.7	224.4	38.0	30.07	58.7	8.1	13.00	-136.8	0	93.1	25.4	31.8	0	0	0	0	0	34.3	32.1	0.0
2021 02/25 18:15	23.1	98.7	260.8	34.5	30.10	58.8	0.7	13.01	-136.8	0	92.3	25.4	31.3	0	0	0	0	0	34.3	32.1	0.0
2021 02/25 18:30	23.1	98.7	263.1	28.7	30.11	58.8	0.0	13.00	-136.9	0	92.6	25.4	30.6	0	0	0	0	0	34.2	32.1	0.0
2021 02/25 18:45	23.0	98.5	302.5	31.1	30.09	58.8	0.0	13.00	-136.9	0	93.1	24.5	31.4	0	0	0	0	0	34.1	32.1	0.0
2021 02/25 19:00	23.0	98.5	255.2	35.6	30.09	58.8	0.0	13.00	-136.8	0	93.1	25.4	31.3	0	0	0	0	0	34.0	32.1	0.0
2021 02/25 19:15	23.1	98.7	223.8	36.6	30.10	58.7	0.0	12.99	-136.9	0	92.9	25.4	30.2	0	0	0	0	0	33.9	32.1	0.0
2021 02/25 19:30	23.3	98.7	254.0	32.2	30.12	58.6	0.0	13.01	-137.0	0	91.4	25.4	31.3	0	0	0	0	0	33.9	32.1	0.0
2021 02/25 19:45	23.1	98.7	265.1	27.9	30.12	58.5	0.0	13.01	-137.0	0	92.8	25.4	30.9	0	0	0	0	0	33.7	32.1	0.0
2021 02/25 20:00	23.3	98.7	251.9	31.1	30.12	58.4	0.0	13.01	-137.0	0	91.5	25.4	30.8	0	0	0	0	0	33.6	32.1	0.0
2021 02/25 20:15	23.1	98.5	276.4	35.5	30.13	58.4	0.0	12.99	-137.0	0	93.2	25.4	31.2	0	0	0	0	0	33.6	32.1	0.0
2021 02/25 20:30	22.9	98.4	277.4	31.2	30.13	58.2	0.0	12.99	-137.0	0	-999.9	-999.9	30.9	0	0	0	0	0	33.5	32.1	0.0
2021 02/25 20:45	22.8	98.4	298.3	31.8	30.14	58.2	0.0	12.99	-137.0	0	91.0	24.5	32.7	0	0	0	0	0	33.4	32.1	0.0
2021 02/25 21:00	23.1	98.6	215.4	27.3	30.13	58.0	0.0	13.03	-137.1	0	89.5	25.4	30.7	0	0	0	0	0	33.4	32.0	0.0
2021 02/25 21:15	23.3	98.7	263.9	27.4	30.13	58.0	0.0	12.99	-137.1	0	92.5	25.4	32.5	0	0	0	0	0	33.4	32.1	0.0
2021 02/25 21:30	23.3	98.7	231.3	31.8	30.12	57.9	0.0	13.01	-137.1	0	-999.9	-999.9	31.5	0	0	0	0	0	33.3	32.0	0.0
2021 02/25 21:45	23.4	98.8	262.5	33.2	30.12	57.8	0.0	12.99	-137.1	0	-999.9	-999.9	31.3	0	0	0	0	0	33.2	32.1	0.0
2021 02/25 22:00	23.4	98.7	228.1	32.9	30.12	57.8	0.0	13.03	-137.1	0	-999.9	-999.9	31.1	0	0	0	0	0	33.2	32.0	0.0
2021 02/25 22:15	24.4	99.2	235.0	35.5	30.12	57.7	0.0	12.99	-137.1	0	91.8	25.4	32.1	0	0	0	0	0	33.1	32.0	0.0
2021 02/25 22:30	23.3	98.6	251.2	31.2	30.11	57.6	0.0	13.02	-137.1	0	90.9	25.4	32.8	0	0	0	0	0	33.1	32.0	0.0
2021 02/25 22:45	23.1	98.6	248.0	29.1	30.12	57.6	0.0	13.00	-137.1	0	-999.9	-999.9	31.4	0	0	0	0	0	33.1	32.1	0.0
2021 02/25 23:00	23.3	98.6	242.8	28.5	30.11	57.6	0.3	13.01	-137.1	0	-999.9	25.4	30.7	0	0	0	0	0	33.0	32.0	0.0
2021 02/25 23:15	23.4	98.6	257.0	30.0	30.11	57.6	0.0	13.01	-137.1	0	-999.9	-999.9	31.6	0	0	0	0	0	32.9	32.0	0.0
2021 02/25 23:30	23.4	98.7	233.9	30.8	30.10	57.6	0.7	13.01	-137.1	0	-999.9	-999.9	30.8	0	0	0	0	0	32.9	32.0	0.0
2021 02/25 23:45	23.3	98.6	240.0	31.2	30.09	57.6	0.0	13.02	-137.1	0	-999.9	-999.9	30.3	0	0	0	0	0	32.9	32.0	0.0
2021 02/26 00:00	23.3	98.6	228.4	28.9	30.09	57.6	0.0	12.99	-137.1	0	-999.9	-999.9	30.3	0	0	0	0	0	32.7	32.0	0.0
2021 02/26 00:15	23.1	98.5	238.1	27.3	30.10	57.4	0.0	12.99	-137.2	0	-999.9	-999.9	30.5	0	0	0	0	0	32.9	32.0	0.0
2021 02/26 00:30	23.0	98.5	255.6	27.8	30.09	57.4	0.0	12.99	-137.2	0	93.4	25.4	30.2	0	0	0	0	0	32.6	32.0	0.0
2021 02/26 00:45	22.9	98.5	231.4	31.9	30.06	57.4	0.0	13.01	-137.1	0	-999.9	-999.9	30.0	0	0	0	0	0	32.6	32.0	0.0
2021 02/26 01:00	22.7	98.3	217.9	40.0	30.04	57.1	0.0	13.00	-137.2	0	-999.9	-999.9	29.6	0	0	0	0	0	32.5	32.0	0.0
2021 02/26 01:15	22.5	98.3	233.9	34.6	30.03	57.1	0.0	13.01	-137.2	0	93.9	24.5	29.0	0	0	0	0	0	32.5	32.0	0.0
2021 02/26 01:30	22.4	98.2	248.6	36.6	30.00	56.9	0.0	13.01	-137.2	0	94.1	24.5	29.4	0	0	0	0	0	32.5	32.0	0.0
2021 02/26 01:45	22.4	98.4	234.1	35.4	29.98	56.9	0.0	13.02	-137.2	0	91.6	24.5	29.3	0	0	0	0	0	32.5	32.0	0.0
2021 02/26 02:00	22.5	98.5	233.6	39.5	29.96	56.7	0.0	13.01	-137.2	0	94.4	24.5	29.3	0	0	0	0	0	32.5	32.0	0.0
2021 02/26 02:15	22.7	98.5	220.4	36.6	29.95	56.5	0.0	13.00	-137.2	0	94.4	24.5	29.4	0	0	0	0	0	32.5	31.8	0.0
2021 02/26 02:30	22.8	98.5	236.2	40.1	29.93	56.5	0.0	13.01	-137.2	0	93.8	24.5	29.1	0	0	0	0	0	32.5	32.0	0.0
2021 02/26 02:45	22.9	98.5	212.3	39.6	29.91	56.3	0.0	13.01	-137.2	0	93.9	24.5	29.9	0	0	0	0	0	32.4	31.8	0.0
2021 02/26 03:00	22.9	98.6	263.0	41.9	29.88	56.3	0.0	13.01	-137.3	0	93.8	25.4	30.3	0	0	0	0	0	32.3	31.8	0.0
2021 02/26 03:15	23.0	98.6	255.7	41.4	29.88	56.1	0.0	13.01	-137.3	0	92.1	25.4	29.5	0	0	0	0	0	32.3	31.8	0.0
2021 02/26 03:30	22.9	98.5	254.2	40.9	29.86	56.1	0.0	13.00	-137.3	0	93.7	24.5	29.3	0	0	0	0	0	32.3	31.8	0.0
2021 02/26 03:45	23.9	99.1	242.2	44.0	29.83	56.1	0.0	12.99	-137.3	0	93.6	24.5	29.9	0	0	0	0	0	32.3	31.8	0.0
2021 02/26 04:00	22.9	98.5	223.2	45.2	29.81	56.1	0.0	13.00	-137.3	0	93.3	24.5	29.8	0	0	0	0	0	32.2	31.8	0.0
2021 02/26 04:15	23.0	98.6	236.9	44.7	29.78	56.1	0.0	13.00	-137.3	0	93.7	25.4	30.5	0	0	0	0	0	32.2	31.8	0.0
2021 02/26 04:30	23.1	98.8	220.9	44.4	29.77	56.1	0.0	13.01	-137.3	0	90.5	25.4	30.0	0	0	0	0	0	32.2	31.8	0.0
2021 02/26 04:45	23.1	98.7	266.9	45.4	29.78	56.1	0.0	13.01	-137.3	0	92.2	25.4	30.4	0	0	0	0	0	32.1	31.8	0.0
2021 02/26 05:00	23.4	98.8	235.4	44.0	29.76	56.1	0.0	12.99	-137.3	0	92.1	25.4	30.0	0	0	0	0	0	32.2	31.8	0.0
2021 02/26 05:15	23.4	98.7	251.7	44.0	29.74	56.1	0.0	13.02	-137.3	0	93.0	25.4	30.0	0	0	0	0	0	32.2	31.8	0.0
2021 02/26 05:30	23.5	99.0	257.3	46.5	29.76	56.0	0.0	13.00	-137.3	0	94.0	25.4	29.8	0	0	0	0	0	32.0	31.8	0.0
2021 02/26 05:45	23.8	99.0	246.6	47.1	29.75	56.0	1.4	12.99	-137.3	0	91.2	25.4	30.6	0	0	0	0	0	32.1	31.8	0.0
2021 02/26 06:00	23.8	99.0	282.3	52.0	29.74	56.0	1.4	13.01	-137.3	0	91.4	26.3	31.4	0	0	0	0	0	32.1	31.8	0.0
2021 02/26 06:15	24.0	99.1	258.9	23.5	29.82	55.9	0.0	13.02	-137.3	0	92.6	24.5	30.8	0	0	0	0	0	32.1	31.8	0.0
2021 02/26 06:30	23.1	98.2	340.5	25.4	29.81	55.9	1.4	13.00	-137.3	0	92.9	24.5	30.6	0	0	0	0	0	32.1	31.8	0.0
2021 02/26 06:45	22.7	98.3	274.9	34.5	29.78	56.0	19.0	13.00	-137.3	0	-999.9	-999.9	30.3	0	0	0	0	0	32.0	31.8	0.0
2021 02/26 07:00	22.5	98.5	238.7	44.6	29.76	55.9	63.8	13.01	-137.3	0	-999.9	-999.9	30.0	0	0	0	0	0	32.1	31.8	0.0
2021 02/26 07:15	22.5	98.4	279.7	30.7	29.80	55.9	88.2	13.01	-137.3	0	93.2	24.5	30.5	0	0	0	0	0	32.0	31.8	0.0
2021 02/26 07:30	22.7	98.3	262.2	24.2	29.82	55.9	150.3	13.03	-137.3	0	94.1	24.5	30.9	0	0	0	0	0	32.0	31.8	0.0
2021 02/26 07:45	22.1	97.8	246.5	17.4	29.85	55.9	227.0	13.02	-137.3	0	-999.9	-999.9	31.3	0	0	0	0	0	32.0	31.8	0.0
2021 02/26 08:00	21.7	97.6	287.6	14.9	29.86	55.9	357.3	13.02	-137.3	0	-999.9	-999.9	29.6	0	0	0	0	0	32.0	31.8	0.0
2021 02/26 08:15	21.3	97.5	267.3	23.8	29.87	55.9	405.4	13.01	-137.3	0	94.6	22.7	29.9	0	0	0	0	0	32.0	31.8	0.0
2021 02/26 08:30	20.6	97.1	149.4	22.6	29.89	56.0	476.0	13.00	-137.3	0	94.4	22.7	30.8	0	0	0	0	0	31.7	31.8	0.0
2021 02/26 08:45	20.3	97.1	263.8	19.3	29.89	56.1	399.0	13.01	-137.3	0	92.5	22.7	30.9	0	0	0	0	0	31.8	31.8	0.0
2021 02/26 09:00	20.1	97.1	67.1	17.8	29.90	56.2	435.6	13.02	-137.3	0	96.4	22.7	30.7	0	0	0	0	0	31.8	31.8	0.0
2021 02/26 09:15	20.0	97.0	305.1	20.0	29.91	56.5	541.8	13.01	-137.2	0	-999.9	-999.9	29.6	0	0	0	0	0	31.8	31.8	0.0
2021 02/26 09:30	19.9	97.1	206.7	22.9	29.92	56.7	475.0	13.00	-137.2	0	94.2	22.7	28.8	0	0	0	0	0	31.8	31.8	0.0
2021 02/26 09:45	19.9	96.9	269.5	20.2	29.93	56.9	534.0	13.02	-137.2	0	94.6	22.7	32.4	0	0	0	0	0	32.0	31.8	0.0
2021 02/26 10:00	19.7	97.0	310.0	20.6	29.94	57.1	505.9	13.03	-137.2	0	94.8	23.6	33.9	0	0	0	0	0	32.0	31.8	0.0
2021 02/26 10:15	20.1	97.3	242.4	23.4	29.94	57.6	660.9	13.00	-137.1	0	-999.9	-999.9	32.0	0	0	0	0	0	32.2	31.7	0.0
2021 02/26 10:30	20.5	97.4	281.8	20.2	29.95	58.0	511.6	13.00	-137.1	0	-999.9	-999.9	32.3	0	0	0	0	0	32.6	31.8	0.0
2021 02/26 10:45	20.5	97.4	302.1	18.8	29.95	58.4	477.7	13.01	-137.0	0	-999.9	-999.9	30.7	0	0	0	0	0	32.5	31.8	0.0
2021 02/26 11:00	20.4	97.4	269.5	21.1	29.96	58.8	609.3	13.00	-136.8	0	-999.9	-999.9	31.8	0	0	0	0	0	32.6	31.8	0.0
2021 02/26 11:15	21.1	98.0	263.1	19.2	29.96	59.2	642.5	13.03	-136.7	0	-999.9	-999.9	32.5	0	0	0	0	0	33.1	31.8	0.0
2021 02/26 11:30	21.9	98.4	274.4	17.3	29.98	59.6	577.0	13.02	-136.7	0	-999.9	-999.9	35.9	0	0	0	0	0	33.4	31.8	0.0
2021 02/26 11:45	22.0	98.2	271.1	22.1	29.99	60.2	608.9	13.01	-136.6	0	-999.9	-999.9	34.0	0	0	0	0	0	33.5	31.8	0.0
2021 02/26 12:00	21.9	98.0	305.5	12.2	30.01	60.7	580.4	13.03	-136.5	0	-999.9	-999.9	32.7	0	0	0	0	0	33.6	31.8	0.0
2021 02/26 12:15	22.2	98.0	266.2	15.1	29.99	61.2	503.7	13.02	-136.2	0	-999.9	-999.9	32.6	0	0	0	0	0	33.5	31.8	0.0
2021 02/26 12:30	21.9	98.0	287.7	18.6	30.01	61.8	552.6	13.00	-136.1	0	-999.9	-999.9	32.0	0	0	0	0	0	33.5	31.8	0.0
2021 02/26 12:45	21.8	98.0	229.8	16.0	30.01	62.2	715.0	13.02	-136.0	0	-999.9	-999.9	35.4	0	0	0	0	0	33.9	31.8	0.0
2021 02/26 13:00	22.5	98.6	311.5	27.6	30.02	62.6	604.1	13.00	-135.9	0	-999.9	-999.9	33.5	0	0	0	0	0	34.0	31.8	0.0
2021 02/26 13:15	22.4	98.2	304.9	28.9	30.01	63.0	650.9	13.00	-135.7	0	-999.9	-999.9	35.8	0	0	0	0	0	34.2	31.8	0.0
2021 02/26 13:30	22.3	98.2	226.7	12.7	30.02	63.4	555.2	13.02	-135.6	0	-999.9	-999.9	34.3	0	0	0	0	0	34.3	31.8	0.0
2021 02/26 13:45	22.3	98.2	300.5	36.6	30.01	63.8	545.0	13.02	-135.5	0	-999.9	-999.9	34.5	0	0	0	0	0	34.3	31.8	0.0
2021 02/26 14:00	22.3	98.3	308.6	12.0	30.02	64.2	610.5	13.03	-135.2	0	-999.9	-999.9	33.7	0	0	0	0	0	34.4	31.8	0.0
2021 02/26 14:15	22.5	98.2	270.8	22.0	30.02	64.6	526.0	13.01	-135.1	0	-999.9	-999.9	32.0	0	0	0	0	0	34.4	32.0	0.0
2021 02/26 14:30	21.9	97.7	278.2	24.8	30.02	64.9	526.0	13.02	-135.0	0	-999.9	-999.9	30.8	0	0	0	0	0	34.3	31.8	0.0
2021 02/26 14:45	21.7	97.7	248.4	14.8	30.04	65.2	475.8	13.01	-134.9	0	-999.9	-999.9	33.6	0	0	0	0	0	34.3	31.8	0.0
2021 02/26 15:00	21.5	97.7	282.7	12.1	30.04	65.5	514.5	13.01	-134.7	0	99.9	23.6	31.8	0	0	0	0	0	34.3	32.0	0.0
2021 02/26 15:15	21.5	97.7	353.6	21.5	30.04	65.8	514.8	13.01	-134.6	0	100.1	24.5	31.7	0	0	0	0	0	34.3	32.0	0.0
2021 02/26 15:30	21.5	97.9	236.4	22.2	30.04	66.1	565.7	13.01	-134.5	0	-999.9	-999.9	32.8	0	0	0	0	0	34.3	32.0	0.0
2021 02/26 15:45	21.5	97.9	284.7	24.5	30.04	66.3	418.9	13.02	-134.4	0	-999.9	-999.9	31.5	0	0	0	0	0	34.3	32.0	0.0
2021 02/26 16:00	21.5	98.0	300.9	19.2	30.03	66.6	444.3	13.00	-134.3	0	-999.9	-999.9	32.1	0	0	0	0	0	34.4	32.0	0.0
2021 02/26 16:15	21.4	97.7	328.9	27.1	30.03	66.8	294.4	13.00	-134.1	0	100.5	23.6	31.2	0	0	0	0	0	34.4	32.0	0.0
2021 02/26 16:30	21.4	97.7	226.6	31.4	30.02	67.0	259.5	13.03	-134.1	0	-999.9	-999.9	29.6	0	0	0	0	0	35.1	32.2	0.0
2021 02/26 16:45	21.2	97.5	298.9	35.5	30.01	67.2	222.1	13.03	-134.0	0	-999.9	-999.9	29.7	0	0	0	0	0	38.1	32.2	0.0
2021 02/26 17:00	20.8	97.5	285.6	30.7	30.00	67.4	252.0	13.01	-134.0	0	-999.9	-999.9	29.7	0	0	0	0	0	42.4	32.2	0.0
2021 02/26 17:15	20.9	97.6	277.1	30.8	30.00	67.4	108.2	13.03	-133.9	0	-999.9	-999.9	30.6	0	0	0	0	0	46.7	32.2	0.0
2021 02/26 17:30	20.9	97.5	307.1	27.6	30.01	67.6	56.0	13.01	-133.9	0	-999.9	-999.9	29.9	0	0	0	0	0	49.7	32.2	0.0
2021 02/26 17:45	20.8	97.4	301.6	17.9	30.03	67.6	29.2	13.02	-133.9	0	102.0	22.7	29.4	0	0	0	0	0	51.6	32.2	0.0
2021 02/26 18:00	20.8	97.5	316.1	16.5	30.03	67.7	8.1	13.00	-133.9	0	-999.9	-999.9	29.7	0	0	0	0	0	54.5	32.2	0.0
2021 02/26 18:15	20.9	97.4	296.1	22.0	30.02	67.7	0.3	13.04	-133.9	0	-999.9	-999.9	28.1	0	0	0	0	0	57.2	32.2	0.0
2021 02/26 18:30	20.7	97.3	211.6	21.1	30.01	67.8	0.0	13.00	-133.9	0	-999.9	-999.9	29.7	0	0	0	0	0	58.2	32.2	0.0
2021 02/26 18:45	20.6	97.3	287.7	24.2	30.01	67.8	0.0	13.02	-133.9	0	103.1	22.7	28.7	0	0	0	0	0	58.4	32.2	0.0
2021 02/26 19:00	20.4	97.3	283.5	32.0	30.01	67.8	0.0	13.02	-133.9	0	-999.9	-999.9	29.5	0	0	0	0	0	60.0	32.3	0.0
2021 02/26 19:15	20.2	97.1	276.3	23.1	30.02	67.9	0.0	13.00	-133.9	0	103.2	21.8	31.1	0	0	0	0	0	61.4	32.3	0.0
2021 02/26 19:30	19.8	97.0	288.8	23.4	30.01	68.0	0.0	12.99	-133.9	0	104.0	20.9	28.4	0	0	0	0	0	63.0	32.3	0.0
2021 02/26 19:45	19.6	96.9	277.9	25.5	30.02	68.0	0.0	13.02	-133.9	0	-999.9	-999.9	28.2	0	0	0	0	0	63.6	32.4	0.0
2021 02/26 20:00	19.1	96.5	327.0	29.9	30.03	68.0	0.0	13.02	-133.9	0	104.5	20.9	29.0	0	0	0	0	0	64.7	32.4	0.0
2021 02/26 20:15	18.7	96.4	284.4	23.8	30.03	68.1	0.0	13.02	-133.9	0	104.5	20.0	29.3	0	0	0	0	0	65.1	32.5	0.0
2021 02/26 20:30	18.5	96.3	286.0	21.3	30.03	68.2	0.0	13.02	-133.9	0	103.7	20.9	27.1	0	0	0	0	0	65.6	32.5	0.0
2021 02/26 20:45	18.6	96.6	287.2	22.1	30.02	68.2	0.0	13.03	-133.9	0	104.1	20.9	27.0	0	0	0	0	0	66.5	32.6	0.0
2021 02/26 21:00	20.1	97.6	249.1	24.4	30.01	68.2	0.0	13.01	-133.8	0	104.1	20.9	27.6	0	0	0	0	0	66.5	32.6	0.0
2021 02/26 21:15	19.2	97.0	275.1	31.6	30.00	68.3	0.0	13.01	-133.8	0	104.0	21.8	27.3	0	0	0	0	0	66.3	32.6	0.0
2021 02/26 21:30	19.3	97.0	277.3	29.2	30.01	68.2	0.0	13.00	-133.9	0	104.3	21.8	28.1	0	0	0	0	0	66.0	32.7	0.0
2021 02/26 21:45	19.6	97.1	272.4	25.9	30.01	68.2	0.0	12.99	-133.9	0	104.4	21.8	29.7	0	0	0	0	0	65.7	32.7	0.0
2021 02/26 22:00	19.7	97.1	289.7	22.9	30.01	68.2	0.0	13.03	-133.9	0	-999.9	-999.9	27.5	0	0	0	0	0	64.8	32.7	0.0
2021 02/26 22:15	20.7	97.6	276.3	24.1	30.01	68.2	0.0	13.01	-134.0	0	-999.9	-999.9	27.5	0	0	0	0	0	63.8	32.9	0.0
2021 02/26 22:30	19.6	96.9	266.6	21.4	30.00	68.2	0.0	13.01	-134.0	0	-999.9	-999.9	27.9	0	0	0	0	0	62.5	32.9	0.0
2021 02/26 22:45	19.6	97.0	220.5	32.1	29.99	68.2	0.0	13.03	-134.0	0	104.2	21.8	27.3	0	0	0	0	0	62.3	33.0	0.0
2021 02/26 23:00	19.7	97.1	296.7	26.8	29.98	68.2	0.0	13.02	-134.0	0	102.9	21.8	27.9	0	0	0	0	0	62.9	33.0	0.0
2021 02/26 23:15	19.8	97.1	292.9	21.1	29.99	68.2	0.0	13.00	-134.0	0	104.8	21.8	27.8	0	0	0	0	0	64.0	33.0	0.0
2021 02/26 23:30	19.9	97.1	279.3	22.5	29.98	68.2	0.0	13.01	-134.1	0	103.1	21.8	26.7	0	0	0	0	0	65.0	33.1	0.0
2021 02/26 23:45	19.7	97.1	283.3	26.8	29.97	68.2	0.0	13.00	-134.1	0	103.8	21.8	26.1	0	0	0	0	0	65.6	33.1	0.0
2021 02/27 00:00	19.6	96.8	253.7	22.7	29.98	68.2	0.0	13.00	-134.1	0	-999.9	-999.9	27.1	0	0	0	0	0	66.5	33.1	0.0
2021 02/27 00:15	19.5	96.9	231.7	21.5	29.98	68.2	0.0	13.02	-134.1	0	104.3	21.8	27.3	0	0	0	0	0	66.5	33.1	0.0
2021 02/27 00:30	19.5	97.0	309.7	26.9	29.99	68.2	0.0	13.01	-134.1	0	103.6	21.8	26.4	0	0	0	0	0	66.5	33.1	0.0
2021 02/27 00:45	20.2	97.7	328.3	26.0	29.99	68.2	0.0	13.01	-134.1	0	104.7	21.8	26.3	0	0	0	0	0	67.5	33.2	0.0
2021 02/27 01:00	19.8	97.2	322.3	29.4	29.98	68.2	0.3	13.00	-134.1	0	105.3	21.8	26.8	0	0	0	0	0	66.9	33.2	0.0
2021 02/27 01:15	19.9	97.3	301.1	31.5	29.99	68.2	0.0	13.01	-134.1	0	104.3	21.8	26.3	0	0	0	0	0	66.3	33.2	0.0
2021 02/27 01:30	20.1	97.3	271.8	20.6	30.00	68.3	0.0	13.00	-134.1	0	-999.9	-999.9	27.9	0	0	0	0	0	65.5	33.3	0.0
2021 02/27 01:45	20.2	97.3	277.4	21.6	30.00	68.3	0.0	12.99	-134.1	0	104.9	22.7	28.0	0	0	0	0	0	64.8	33.3	0.0
2021 02/27 02:00	20.3	97.3	289.7	26.8	29.99	68.4	0.0	13.00	-134.1	0	-999.9	22.7	28.0	0	0	0	0	0	63.7	33.3	0.0
2021 02/27 02:15	20.4	97.4	275.1	23.1	29.98	68.4	0.0	13.00	-134.0	0	105.5	22.7	26.9	0	0	0	0	0	63.3	33.4	0.0
2021 02/27 02:30	20.4	97.3	306.9	24.7	30.00	68.5	0.0	12.99	-134.0	0	105.3	22.7	28.2	0	0	0	0	0	63.7	33.4	0.0
2021 02/27 02:45	20.4	97.3	178.5	24.5	29.99	68.7	0.0	13.00	-134.0	0	105.5	22.7	26.8	0	0	0	0	0	64.7	33.4	0.0
2021 02/27 03:00	20.4	97.2	293.1	21.3	30.01	68.7	0.0	13.01	-134.0	0	105.8	21.8	27.1	0	0	0	0	0	65.7	33.4	0.0
2021 02/27 03:15	20.4	97.3	291.7	30.4	30.01	68.7	0.0	13.02	-133.9	0	106.0	21.8	27.0	0	0	0	0	0	66.7	33.4	0.0
2021 02/27 03:30	20.1	97.0	263.4	28.5	30.02	68.7	0.0	13.00	-133.9	0	105.7	20.9	27.1	0	0	0	0	0	67.5	33.4	0.0
2021 02/27 03:45	19.7	96.8	308.4	24.9	30.03	68.8	0.0	13.01	-133.9	0	106.1	20.9	27.5	0	0	0	0	0	68.0	33.5	0.0
2021 02/27 04:00	19.3	96.8	283.0	19.3	30.06	68.8	0.0	13.01	-134.0	0	104.7	20.9	26.1	0	0	0	0	0	68.5	33.5	0.0
2021 02/27 04:15	19.3	96.7	295.6	14.9	30.04	68.9	0.0	13.03	-134.0	0	106.0	20.9	27.5	0	0	0	0	0	68.7	33.5	0.0
2021 02/27 04:30	19.9	97.3	245.9	22.4	30.06	68.9	0.0	13.01	-134.0	0	105.5	21.8	28.6	0	0	0	0	0	68.9	33.5	0.0
2021 02/27 04:45	19.2	96.8	274.5	21.6	30.06	68.9	0.0	13.03	-134.0	0	106.6	20.9	26.4	0	0	0	0	0	68.2	33.5	0.0
2021 02/27 05:00	19.5	96.8	298.3	16.4	30.07	68.8	0.0	13.02	-134.0	0	106.3	20.9	26.3	0	0	0	0	0	67.3	33.5	0.0
2021 02/27 05:15	19.2	96.7	262.2	15.8	30.08	68.8	0.0	13.00	-134.0	0	-999.9	-999.9	26.6	0	0	0	0	0	66.6	33.6	0.0
2021 02/27 05:30	19.3	96.8	202.1	15.7	30.10	68.7	0.0	13.03	-134.1	0	106.0	20.9	26.9	0	0	0	0	0	66.6	33.6	0.0
2021 02/27 05:45	19.3	96.8	306.2	16.8	30.11	68.7	0.0	13.00	-134.1	0	106.2	20.9	27.3	0	0	0	0	0	66.6	33.6	0.0
2021 02/27 06:00	19.3	96.8	249.2	20.0	30.09	68.5	0.0	13.01	-134.3	0	105.8	20.9	29.1	0	0	0	0	0	66.1	33.6	0.0
2021 02/27 06:15	19.3	96.9	197.5	20.0	30.12	68.4	0.3	13.00	-134.4	0	105.8	20.9	27.1	0	0	0	0	0	65.4	33.6	0.0
2021 02/27 06:30	19.3	96.9	303.4	21.1	30.12	68.4	2.0	13.00	-134.4	0	105.9	21.8	26.8	0	0	0	0	0	65.4	33.7	0.0
2021 02/27 06:45	19.3	96.9	53.5	18.8	30.13	68.3	24.1	13.01	-134.4	0	105.8	21.8	27.5	0	0	0	0	0	65.1	33.7	0.0
2021 02/27 07:00	19.5	97.0	282.5	16.6	30.14	68.2	70.9	13.02	-134.5	0	105.7	21.8	27.8	0	0	0	0	0	65.0	33.7	0.0
2021 02/27 07:15	19.6	97.0	281.5	16.5	30.15	68.2	126.8	13.02	-134.5	0	105.7	21.8	28.8	0	0	0	0	0	65.9	33.7	0.0
2021 02/27 07:30	19.7	97.0	204.0	19.3	30.16	68.2	208.9	13.02	-134.5	0	105.8	21.8	29.4	0	0	0	0	0	66.6	33.7	0.0
2021 02/27 07:45	19.7	97.2	260.0	22.6	30.17	68.1	284.6	13.02	-134.5	0	105.8	21.8	28.0	0	0	0	0	0	66.8	33.7	0.0
2021 02/27 08:00	19.8	97.3	289.1	22.7	30.18	68.1	263.2	13.02	-134.6	0	105.7	21.8	30.7	0	0	0	0	0	67.5	33.7	0.0
2021 02/27 08:15	19.8	97.1	293.9	19.4	30.19	68.0	380.2	13.02	-134.6	0	105.6	21.8	29.3	0	0	0	0	0	68.1	33.9	0.0
2021 02/27 08:30	19.9	97.2	291.3	13.7	30.21	68.0	511.1	13.03	-134.6	0	105.6	21.8	29.6	0	0	0	0	0	68.6	33.9	0.0
2021 02/27 08:45	20.1	97.2	293.2	14.5	30.22	68.0	516.5	13.01	-134.6	0	105.0	22.7	29.7	0	0	0	0	0	69.3	33.9	0.0
2021 02/27 09:00	20.3	97.3	219.7	12.8	30.22	68.0	610.5	13.03	-134.6	0	105.1	23.6	31.6	0	0	0	0	0	69.5	33.9	0.0
2021 02/27 09:15	20.9	97.5	312.7	11.7	30.23	68.0	543.3	13.01	-134.6	0	105.3	22.7	31.8	0	0	0	0	0	69.3	33.9	0.0
2021 02/27 09:30	20.7	97.5	285.0	12.8	30.23	67.8	560.3	13.02	-134.7	0	104.7	23.6	30.7	0	0	0	0	0	68.7	34.0	0.0
2021 02/27 09:45	20.9	97.7	302.8	13.2	30.24	67.4	649.8	13.02	-135.0	0	104.7	23.6	31.1	0	0	0	0	0	68.9	34.0	0.0
2021 02/27 10:00	22.4	98.6	304.3	12.2	30.24	67.0	561.0	13.03	-135.2	0	104.7	24.5	30.3	0	0	0	0	0	69.5	34.0	0.0
2021 02/27 10:15	21.8	98.2	288.7	10.4	30.24	66.7	626.8	13.00	-135.5	0	105.3	24.5	31.3	0	0	0	0	0	70.4	34.0	0.0
2021 02/27 10:30	22.3	98.2	257.5	14.9	30.24	66.4	580.6	13.00	-135.6	0	105.5	24.5	30.6	0	0	0	0	0	71.1	34.1	0.0
2021 02/27 10:45	23.6	98.8	269.3	13.8	30.24	66.1	624.7	13.01	-135.7	0	105.4	24.5	31.2	0	0	0	0	0	71.9	34.1	0.0
2021 02/27 11:00	23.0	98.5	253.3	15.5	30.24	65.9	602.3	13.00	-135.7	0	105.3	25.4	32.3	0	0	0	0	0	72.6	34.1	0.0
2021 02/27 11:15	23.4	98.6	278.2	15.5	30.23	65.7	615.9	13.02	-135.8	0	105.3	25.4	33.9	0	0	0	0	0	72.9	34.2	0.0
2021 02/27 11:30	24.5	99.4	258.0	15.7	30.24	65.4	676.3	13.01	-136.0	0	105.1	27.2	35.2	0	0	0	0	0	73.1	34.2	0.0
2021 02/27 11:45	23.6	98.6	249.5	17.4	30.24	65.2	633.9	13.02	-136.0	0	105.3	27.2	36.9	0	0	0	0	0	73.1	34.3	0.0
2021 02/27 12:00	23.7	98.6	277.8	17.5	30.24	65.0	600.3	13.02	-136.1	0	105.3	27.2	37.2	0	0	0	0	0	73.0	34.3	0.0
2021 02/27 12:15	23.6	98.5	282.0	17.9	30.24	64.7	569.1	13.01	-136.1	0	105.2	26.3	36.0	0	0	0	0	0	72.6	34.4	0.0
2021 02/27 12:30	23.4	98.3	279.8	18.0	30.24	64.5	731.0	12.99	-136.2	0	105.1	27.2	36.8	0	0	0	0	0	72.0	34.4	0.0
2021 02/27 12:45	23.3	98.4	294.4	15.7	30.24	64.3	588.5	13.00	-136.2	0	105.2	26.3	35.2	0	0	0	0	0	72.5	34.5	0.0
2021 02/27 13:00	23.1	98.3	299.5	14.2	30.24	64.1	583.8	12.99	-136.3	0	105.2	25.4	34.3	0	0	0	0	0	73.8	34.5	0.0
2021 02/27 13:15	23.0	98.1	270.1	23.9	30.24	64.0	600.1	13.01	-136.3	0	105.1	25.4	34.1	0	0	0	0	0	75.0	34.7	0.0
2021 02/27 13:30	22.6	98.0	275.4	21.3	30.24	63.9	604.1	13.00	-136.3	0	105.0	26.3	33.6	0	0	0	0	0	76.0	34.7	0.0
2021 02/27 13:45	22.4	98.0	274.3	17.8	30.24	63.8	599.0	12.99	-136.3	0	105.0	26.3	33.7	0	0	0	0	0	76.4	34.7	0.0
2021 02/27 14:00	22.4	98.1	276.2	16.2	30.29	63.7	603.5	13.00	-136.5	0	105.0	26.3	34.5	0	0	0	0	0	77.3	34.8	0.0
2021 02/27 14:15	22.4	98.2	301.4	15.7	30.23	63.6	557.0	13.00	-136.4	0	104.9	26.3	33.1	0	0	0	0	0	77.6	34.8	0.0
2021 02/27 14:30	22.5	98.4	270.0	19.3	30.23	63.5	607.2	13.01	-136.5	0	104.8	26.3	35.9	0	0	0	0	0	78.1	34.8	0.0
2021 02/27 14:45	22.6	98.4	253.8	19.6	30.24	63.5	569.2	13.02	-136.5	0	104.9	26.3	35.8	0	0	0	0	0	78.2	34.9	0.0
2021 02/27 15:00	22.6	98.4	65.0	18.0	30.24	63.3	556.3	13.02	-136.5	0	105.0	25.4	35.4	0	0	0	0	0	77.7	35.0	0.0
2021 02/27 15:15	22.8	98.3	288.3	17.6	30.24	63.1	622.8	12.98	-136.5	0	104.7	28.1	36.7	0	0	0	0	0	78.0	35.0	0.0
2021 02/27 15:30	22.9	98.4	283.3	20.8	30.24	62.9	554.3	13.00	-136.6	0	104.6	26.3	36.4	0	0	0	0	0	77.6	35.0	0.0
2021 02/27 15:45	23.4	98.3	288.6	17.5	30.24	62.6	538.3	13.00	-136.6	0	104.6	26.3	34.3	0	0	0	0	0	77.6	35.0	0.0
2021 02/27 16:00	22.6	98.1	297.2	23.5	30.23	62.3	532.6	13.01	-136.7	0	104.7	26.3	34.3	0	0	0	0	0	77.9	35.1	0.0
2021 02/27 16:15	22.5	98.0	232.5	18.8	30.24	62.0	437.9	13.02	-136.7	0	104.7	25.4	33.4	0	0	0	0	0	78.2	35.1	0.0
2021 02/27 16:30	22.2	97.8	272.7	20.9	30.24	61.8	379.6	13.01	-136.8	0	104.7	24.5	32.1	0	0	0	0	0	78.1	35.1	0.0
2021 02/27 16:45	22.2	97.8	269.2	15.7	30.24	61.6	319.2	13.01	-136.8	0	104.7	24.5	33.3	0	0	0	0	0	77.9	35.2	0.0
2021 02/27 17:00	21.7	97.8	274.9	16.0	30.23	61.4	226.3	12.99	-136.8	0	104.7	23.6	34.9	0	0	0	0	0	77.4	35.2	0.0
2021 02/27 17:15	21.4	97.6	239.7	17.6	30.22	61.2	244.6	13.02	-136.8	0	104.7	23.6	31.4	0	0	0	0	0	76.6	35.3	0.0
2021 02/27 17:30	21.4	97.6	284.0	22.6	30.22	61.1	142.1	13.00	-136.8	0	104.5	23.6	30.3	0	0	0	0	0	76.5	35.3	0.0
2021 02/27 17:45	21.3	97.8	256.5	20.1	30.21	61.0	49.5	13.02	-136.8	0	104.6	23.6	30.2	0	0	0	0	0	76.4	35.3	0.0
2021 02/27 18:00	21.3	97.8	267.1	18.7	30.22	60.9	10.2	13.02	-136.8	0	104.5	23.6	30.2	0	0	0	0	0	75.8	35.3	0.0
2021 02/27 18:15	21.3	97.7	209.9	18.8	30.22	60.9	0.7	13.02	-137.0	0	104.2	23.6	31.6	0	0	0	0	0	74.7	35.3	0.0
2021 02/27 18:30	21.3	97.8	312.0	15.5	30.22	60.9	0.0	13.03	-137.0	0	104.2	23.6	29.9	0	0	0	0	0	73.5	35.3	0.0
2021 02/27 18:45	21.4	97.8	206.4	19.3	30.22	60.8	0.0	13.01	-137.0	0	104.2	23.6	29.8	0	0	0	0	0	72.7	35.4	0.0
2021 02/27 19:00	21.6	98.0	260.7	16.9	30.22	60.8	0.0	13.01	-137.0	0	104.2	23.6	30.6	0	0	0	0	0	71.9	35.4	0.0
2021 02/27 19:15	21.7	98.0	237.0	20.5	30.23	60.8	0.0	13.02	-137.0	0	104.0	23.6	29.0	0	0	0	0	0	72.1	35.4	0.0
2021 02/27 19:30	21.7	98.0	282.2	17.5	30.23	60.8	0.0	13.03	-137.0	0	104.4	23.6	29.5	0	0	0	0	0	72.2	35.4	0.0
2021 02/27 19:45	21.8	98.0	250.3	18.1	30.24	60.8	0.0	13.01	-136.8	0	104.0	23.6	29.9	0	0	0	0	0	72.1	35.4	0.0
2021 02/27 20:00	22.2	98.2	252.9	16.4	30.24	60.8	0.0	13.01	-136.8	0	104.0	23.6	30.2	0	0	0	0	0	71.4	35.5	0.0
2021 02/27 20:15	22.0	98.2	262.3	16.0	30.24	60.8	0.0	13.02	-136.8	0	104.2	23.6	29.5	0	0	0	0	0	70.8	35.4	0.0
2021 02/27 20:30	22.0	98.2	264.1	19.3	30.24	60.8	0.0	13.02	-136.8	0	104.2	23.6	29.7	0	0	0	0	0	70.0	35.4	0.0
2021 02/27 20:45	22.0	98.1	335.4	18.0	30.25	60.8	0.0	13.01	-136.8	0	104.0	23.6	30.0	0	0	0	0	0	69.0	35.4	0.0
2021 02/27 21:00	22.0	98.1	268.2	17.6	30.25	60.8	0.0	13.01	-136.8	0	103.9	23.6	29.8	0	0	0	0	0	68.7	35.4	0.0
2021 02/27 21:15	22.2	98.2	209.1	16.4	30.26	60.9	0.0	13.02	-136.8	0	103.8	24.5	30.4	0	0	0	0	0	70.9	35.4	0.0
2021 02/27 21:30	22.3	98.2	240.4	16.7	30.25	60.9	0.0	13.02	-136.8	0	103.9	24.5	30.7	0	0	0	0	0	71.8	35.4	0.0
2021 02/27 21:45	23.3	98.8	228.0	17.6	30.25	60.9	0.0	13.02	-136.8	0	103.8	24.5	30.6	0	0	0	0	0	72.2	35.4	0.0
2021 02/27 22:00	22.4	98.3	245.1	16.6	30.25	60.9	0.0	13.00	-136.8	0	103.6	23.6	30.4	0	0	0	0	0	73.0	35.5	0.0
2021 02/27 22:15	22.4	98.3	250.1	17.3	30.25	60.9	0.0	13.01	-136.8	0	103.9	24.5	30.2	0	0	0	0	0	73.6	35.4	0.0
2021 02/27 22:30	22.6	98.3	269.8	17.2	30.25	60.9	0.0	13.02	-136.8	0	103.9	24.5	29.6	0	0	0	0	0	74.0	35.4	0.0
2021 02/27 22:45	22.5	98.3	217.6	20.2	30.24	60.9	0.0	13.01	-136.8	0	103.8	24.5	30.2	0	0	0	0	0	74.4	35.5	0.0
2021 02/27 23:00	22.6	98.3	274.7	21.1	30.25	60.9	0.0	13.00	-136.8	0	103.9	24.5	29.9	0	0	0	0	0	74.4	35.4	0.0
2021 02/27 23:15	22.6	98.4	246.1	16.1	30.25	60.9	0.0	13.03	-136.8	0	103.8	24.5	29.8	0	0	0	0	0	74.4	35.4	0.0
2021 02/27 23:30	22.8	98.5	239.2	16.6	30.26	60.9	0.0	13.02	-136.8	0	103.6	24.5	29.8	0	0	0	0	0	74.5	35.4	0.0
2021 02/27 23:45	22.8	98.6	240.1	16.2	30.25	60.9	0.0	13.01	-136.8	0	103.9	24.5	30.0	0	0	0	0	0	74.6	35.4	0.0
2021 02/28 00:00	22.9	98.6	248.9	18.5	30.25	60.9	0.0	13.02	-136.8	0	103.6	24.5	29.8	0	0	0	0	0	74.5	35.5	0.0
2021 02/28 00:15	23.9	99.1	235.3	17.1	30.25	60.9	0.0	13.00	-136.8	0	103.8	24.5	29.8	0	0	0	0	0	74.0	35.5	0.0
2021 02/28 00:30	23.0	98.6	230.6	17.3	30.25	61.0	0.0	13.00	-136.8	0	103.6	24.5	29.6	0	0	0	0	0	73.6	35.5	0.0
2021 02/28 00:45	22.9	98.6	229.8	16.7	30.25	60.9	0.0	13.01	-136.8	0	103.5	24.5	30.2	0	0	0	0	0	73.2	35.5	0.0
2021 02/28 01:00	24.2	99.2	242.7	22.0	30.24	60.9	0.0	13.03	-136.8	0	-999.9	-999.9	30.3	0	0	0	0	0	72.5	35.5	0.0
2021 02/28 01:15	22.9	98.5	215.8	18.6	30.25	60.9	0.0	13.00	-136.8	0	-999.9	-999.9	30.9	0	0	0	0	0	71.9	35.5	0.0
2021 02/28 01:30	22.9	98.5	232.6	16.7	30.25	60.9	0.0	13.03	-136.8	0	-999.9	-999.9	30.0	0	0	0	0	0	72.3	35.5	0.0
2021 02/28 01:45	23.0	98.6	243.3	19.2	30.25	60.7	0.0	13.02	-136.8	0	-999.9	-999.9	30.7	0	0	0	0	0	73.0	35.5	0.0
2021 02/28 02:00	23.0	98.6	219.1	18.1	30.26	60.7	0.0	13.02	-136.8	0	-999.9	-999.9	30.0	0	0	0	0	0	73.6	35.5	0.0
2021 02/28 02:15	23.1	98.6	235.2	16.6	30.25	60.5	0.0	13.02	-137.0	0	-999.9	-999.9	29.6	0	0	0	0	0	74.1	35.5	0.0
2021 02/28 02:30	23.1	98.7	248.5	14.7	30.25	60.5	0.0	13.03	-137.0	0	-999.9	-999.9	29.5	0	0	0	0	0	74.6	35.5	0.0
2021 02/28 02:45	23.3	98.7	252.9	15.2	30.25	60.4	0.0	13.02	-137.0	0	-999.9	-999.9	29.6	0	0	0	0	0	74.8	35.5	0.0
2021 02/28 03:00	23.4	98.8	240.5	14.5	30.25	60.4	0.0	13.01	-137.0	0	-999.9	-999.9	29.8	0	0	0	0	0	74.7	35.5	0.0
2021 02/28 03:15	23.4	98.8	254.6	18.1	30.25	60.3	0.0	13.01	-137.0	0	103.0	24.5	29.7	0	0	0	0	0	74.5	35.5	0.0
2021 02/28 03:30	23.4	98.8	283.4	15.8	30.25	60.3	0.0	13.01	-137.0	0	103.2	24.5	29.5	0	0	0	0	0	74.0	35.5	0.0
2021 02/28 03:45	23.4	98.7	278.7	18.1	30.25	60.3	0.0	13.00	-137.0	0	103.1	24.5	29.8	0	0	0	0	0	73.9	35.5	0.0
2021 02/28 04:00	23.4	98.7	246.3	14.5	30.25	60.3	0.0	13.02	-137.0	0	102.9	25.4	31.2	0	0	0	0	0	73.8	35.5	0.0
2021 02/28 04:15	23.4	98.6	276.0	14.5	30.26	60.3	0.0	13.01	-137.0	0	103.1	24.5	30.4	0	0	0	0	0	73.1	35.5	0.0
2021 02/28 04:30	23.4	98.6	295.1	13.9	30.25	60.3	0.0	13.02	-137.0	0	103.3	24.5	29.7	0	0	0	0	0	72.8	35.5	0.0
2021 02/28 04:45	23.3	98.6	298.0	18.9	30.24	60.3	0.0	12.99	-137.0	0	103.6	25.4	30.5	0	0	0	0	0	72.9	35.5	0.0
2021 02/28 05:00	23.6	98.9	258.8	10.2	30.25	60.3	0.0	13.02	-137.0	0	103.2	25.4	30.2	0	0	0	0	0	73.0	35.5	0.0
2021 02/28 05:15	23.9	99.1	226.6	12.8	30.25	60.3	0.0	13.03	-137.0	0	103.2	24.5	30.5	0	0	0	0	0	72.7	35.7	0.0
2021 02/28 05:30	24.0	98.9	238.2	11.8	30.25	60.5	0.0	13.02	-137.0	0	103.2	24.5	30.7	0	0	0	0	0	72.7	35.5	0.0
2021 02/28 05:45	23.9	98.8	252.5	10.0	30.26	60.5	0.0	13.01	-136.8	0	103.1	25.4	30.3	0	0	0	0	0	72.6	35.5	0.0
2021 02/28 06:00	23.9	98.8	240.4	8.8	30.27	60.5	0.0	13.00	-136.8	0	103.1	25.4	30.4	0	0	0	0	0	72.1	35.7	0.0
2021 02/28 06:15	24.0	99.0	244.3	10.4	30.27	60.5	0.0	12.99	-136.8	0	103.2	25.4	30.9	0	0	0	0	0	72.1	35.7	0.0
2021 02/28 06:30	24.0	99.0	235.0	11.8	30.27	60.5	4.7	13.01	-136.8	0	103.1	25.4	31.2	0	0	0	0	0	72.8	35.7	0.0
2021 02/28 06:45	24.1	99.1	226.0	12.5	30.27	60.6	57.7	13.01	-136.8	0	103.4	25.4	31.7	0	0	0	0	0	73.4	35.7	0.0
2021 02/28 07:00	24.2	99.2	264.7	12.9	30.27	60.5	130.9	13.03	-136.8	0	103.1	25.4	30.8	0	0	0	0	0	73.4	35.7	0.0
2021 02/28 07:15	25.4	100.1	228.7	10.4	30.28	60.5	219.5	13.03	-136.8	0	102.9	25.4	30.8	0	0	0	0	0	73.0	35.7	0.0
2021 02/28 07:30	24.6	99.3	235.8	9.7	30.28	60.6	264.2	13.01	-136.8	0	103.2	26.3	30.6	0	0	0	0	0	72.3	35.7	0.0
2021 02/28 07:45	25.0	99.6	226.6	12.2	30.28	60.6	533.9	13.03	-136.8	0	103.3	26.3	30.5	0	0	0	0	0	71.5	35.7	0.0
2021 02/28 08:00	25.9	100.1	239.9	12.0	30.28	60.5	575.6	13.01	-136.8	0	103.1	27.2	30.3	0	0	0	0	0	71.1	35.7	0.0
2021 02/28 08:15	27.2	100.1	247.3	11.9	30.29	60.6	612.6	13.01	-136.8	0	103.1	27.2	32.0	0	0	0	0	0	70.2	35.7	0.0
2021 02/28 08:30	28.0	100.1	242.9	12.5	30.29	60.6	632.6	13.01	-136.8	0	103.1	27.2	32.1	0	0	0	0	0	69.5	35.7	0.0
2021 02/28 08:45	28.6	100.1	250.3	10.5	30.30	60.7	646.2	13.01	-136.8	0	103.1	29.0	36.0	0	0	0	0	0	69.1	35.7	0.0
2021 02/28 09:00	29.4	100.1	274.3	11.8	30.30	60.7	662.8	13.03	-136.8	0	103.2	28.1	32.8	0	0	0	0	0	68.5	35.7	0.0
2021 02/28 09:15	29.9	100.1	266.6	11.7	30.30	60.7	669.3	13.02	-136.8	0	103.0	29.9	33.5	0	0	0	0	0	68.3	35.7	0.0
2021 02/28 09:30	30.3	100.1	244.4	9.2	30.30	60.6	679.1	13.00	-136.8	0	102.8	32.6	34.5	0	0	0	0	0	68.0	35.7	0.0
2021 02/28 09:45	31.9	100.7	284.2	11.8	30.30	60.5	690.0	13.02	-136.8	0	102.7	33.5	36.7	0	0	0	0	0	67.5	35.8	0.0
2021 02/28 10:00	31.2	100.1	290.1	9.3	30.30	60.4	697.5	13.01	-137.0	0	102.4	33.5	37.8	0	0	0	0	0	67.3	35.8	0.0
2021 02/28 10:15	31.3	100.1	236.2	11.1	30.29	60.3	702.0	13.01	-137.0	0	102.8	34.4	37.7	0	0	0	0	0	67.3	35.8	0.0
2021 02/28 10:30	31.4	100.1	248.2	10.5	30.30	60.1	711.0	13.01	-137.0	0	102.9	35.3	40.9	0	0	0	0	0	67.5	35.8	0.0
2021 02/28 10:45	31.7	100.1	224.8	9.2	30.30	59.9	715.0	13.00	-137.1	0	102.6	35.3	45.1	0	0	0	0	0	67.6	35.8	0.0
2021 02/28 11:00	31.4	100.1	246.6	11.1	30.29	59.5	709.0	13.01	-137.1	0	102.5	35.3	40.5	0	0	0	0	0	67.4	35.9	0.0
2021 02/28 11:15	31.7	100.1	233.0	9.3	30.29	59.1	705.0	13.01	-137.2	0	103.0	34.4	40.6	0	0	0	0	0	66.8	36.0	0.0
2021 02/28 11:30	31.7	100.1	226.9	11.5	30.28	58.4	682.9	13.01	-137.2	0	103.2	36.2	43.4	0	0	0	0	0	66.6	36.0	0.0
2021 02/28 11:45	31.7	100.1	220.4	11.5	30.28	58.0	677.2	13.01	-137.3	0	103.1	37.1	41.7	0	0	0	0	0	66.8	36.0	0.0
2021 02/28 12:00	31.7	100.1	233.1	13.4	30.27	57.5	689.4	13.00	-137.3	0	102.8	38.9	44.3	0	0	0	0	0	67.2	36.1	0.0
2021 02/28 12:15	31.7	100.1	222.6	16.2	30.27	56.9	726.0	13.01	-137.3	0	103.0	39.8	43.4	0	0	0	0	0	67.5	36.1	0.0
2021 02/28 12:30	31.7	100.1	232.5	13.7	30.25	56.5	728.0	13.01	-137.5	0	102.6	41.6	44.0	0	0	0	0	0	67.5	36.2	0.0
2021 02/28 12:45	30.4	100.1	231.7	15.2	30.25	56.1	721.0	13.00	-137.5	0	102.2	42.5	43.8	0	0	0	0	0	67.5	36.1	0.0
2021 02/28 13:00	30.2	100.1	224.6	16.4	30.24	55.7	716.0	13.01	-137.5	0	102.2	41.6	45.8	0	0	0	0	0	67.5	36.2	0.0
2021 02/28 13:15	30.5	100.1	226.6	14.7	30.23	55.4	704.0	13.00	-137.5	0	102.4	42.5	45.3	0	0	0	0	0	67.5	36.2	0.0
2021 02/28 13:30	30.5	100.1	233.7	15.9	30.22	55.2	684.0	12.99	-137.5	0	101.6	45.2	45.0	0	0	0	0	0	67.4	36.3	0.0
2021 02/28 13:45	31.1	100.1	241.4	13.3	30.22	55.0	670.1	13.00	-137.5	0	102.5	42.5	46.0	0	0	0	0	0	67.3	36.3	0.0
2021 02/28 14:00	31.7	100.1	249.0	12.5	30.21	54.8	651.4	13.02	-137.6	0	102.2	43.4	45.7	0	0	0	0	0	66.9	36.5	0.0
2021 02/28 14:15	31.6	100.1	268.3	12.1	30.21	54.6	626.3	13.03	-137.5	0	101.4	43.4	45.9	0	0	0	0	0	66.7	36.5	0.0
2021 02/28 14:30	31.3	100.1	239.0	14.7	30.21	54.4	597.1	13.00	-137.6	0	102.1	43.4	46.2	0	0	0	0	0	66.4	36.5	0.0
2021 02/28 14:45	31.8	100.0	216.8	13.7	30.21	54.1	575.4	13.02	-137.6	0	102.1	42.5	45.7	0	0	0	0	0	66.3	36.6	0.0
2021 02/28 15:00	31.6	100.1	245.9	15.7	30.21	53.7	567.3	13.02	-137.6	0	102.3	41.6	46.6	0	0	0	0	0	66.0	36.6	0.0
2021 02/28 15:15	31.7	100.0	226.8	19.3	30.20	53.5	559.5	13.00	-137.6	0	101.9	41.6	46.2	0	0	0	0	0	65.7	36.6	0.0
2021 02/28 15:30	32.1	100.1	232.3	15.8	30.20	53.3	564.9	13.03	-137.6	0	102.1	41.6	44.5	0	0	0	0	0	65.4	36.6	0.0
2021 02/28 15:45	32.2	100.1	234.1	15.8	30.20	53.3	536.4	12.99	-137.6	0	102.2	41.6	42.1	0	0	0	0	0	65.0	36.7	0.0
2021 02/28 16:00	32.4	100.1	247.2	13.8	30.19	53.3	522.5	13.00	-137.6	0	102.2	39.8	41.3	0	0	0	0	0	64.6	36.7	0.0
2021 02/28 16:15	32.7	100.0	241.0	14.7	30.18	53.3	493.3	13.00	-137.6	0	102.1	40.7	40.7	0	0	0	0	0	64.0	36.7	0.0
2021 02/28 16:30	33.2	100.1	248.2	12.1	30.19	53.3	466.5	13.02	-137.6	0	102.2	38.9	39.8	0	0	0	0	0	63.5	36.7	0.0
2021 02/28 16:45	33.4	100.0	236.2	14.4	30.17	53.2	446.8	13.00	-137.6	0	102.2	38.0	39.6	0	0	0	0	0	63.2	36.7	0.0
2021 02/28 17:00	34.0	100.1	230.8	13.5	30.17	53.1	419.0	13.02	-137.6	0	102.2	37.1	39.4	0	0	0	0	0	62.4	36.7	0.0
2021 02/28 17:15	33.6	100.1	275.2	10.8	30.17	53.1	375.6	13.02	-137.6	0	102.2	36.2	37.6	0	0	0	0	0	61.7	36.7	0.0
2021 02/28 17:30	33.9	100.1	260.1	10.8	30.17	53.1	306.0	13.01	-137.6	0	102.0	35.3	35.8	0	0	0	0	0	60.7	36.7	0.0
2021 02/28 17:45	34.1	100.1	230.4	9.8	30.16	53.3	165.9	13.00	-137.5	0	101.9	33.5	35.7	0	0	0	0	0	59.6	36.7	0.0
2021 02/28 18:00	33.4	100.1	218.6	18.2	30.15	53.3	46.8	13.01	-137.5	0	102.1	32.6	36.2	0	0	0	0	0	58.6	36.7	0.0
2021 02/28 18:15	34.5	100.7	217.9	18.0	30.15	53.5	7.8	13.01	-137.5	0	101.9	32.6	34.5	0	0	0	0	0	58.2	36.7	0.0
2021 02/28 18:30	33.2	94.7	213.6	18.1	30.15	53.5	0.7	13.04	-137.5	0	102.1	34.4	33.6	0	0	0	0	0	56.8	36.7	0.0
2021 02/28 18:45	33.3	95.1	217.3	16.5	30.15	53.7	0.0	13.01	-137.5	0	101.6	36.2	33.6	0	0	0	0	0	55.9	36.7	0.0
2021 02/28 19:00	33.6	95.0	206.4	20.5	30.15	53.7	0.0	13.02	-137.5	0	101.9	36.2	33.1	0	0	0	0	0	54.8	36.7	0.0
2021 02/28 19:15	37.6	44.1	200.6	20.7	30.15	53.7	0.0	13.01	-137.5	0	101.9	36.2	32.1	0	0	0	0	0	54.0	36.6	0.0
2021 02/28 19:30	38.9	18.7	200.3	20.0	30.15	53.7	0.0	13.01	-137.5	0	102.1	34.4	31.4	0	0	0	0	0	53.2	36.6	0.0
2021 02/28 19:45	40.5	14.4	198.0	19.4	30.15	53.7	0.0	13.02	-137.5	0	102.1	34.4	30.7	0	0	0	0	0	52.8	36.6	0.0
2021 02/28 20:00	39.6	13.8	188.7	16.0	30.14	53.7	0.0	13.00	-137.5	0	102.0	32.6	30.4	0	0	0	0	0	51.9	36.5	0.0
2021 02/28 20:15	40.0	16.3	189.2	11.7	30.15	53.6	0.0	13.01	-137.5	0	102.0	32.6	29.8	0	0	0	0	0	51.1	36.5	0.0
2021 02/28 20:30	39.9	18.5	203.3	14.5	30.15	53.6	0.0	13.01	-137.5	0	101.8	33.5	28.7	0	0	0	0	0	50.3	36.5	0.0
2021 02/28 20:45	39.8	18.9	201.8	16.0	30.14	53.6	0.0	13.02	-137.5	0	101.8	31.7	27.6	0	0	0	0	0	49.5	36.3	0.0
2021 02/28 21:00	39.5	21.4	193.6	14.5	30.14	53.5	0.0	13.00	-137.5	0	101.4	31.7	27.0	0	0	0	0	0	48.9	36.3	0.0
2021 02/28 21:15	40.2	11.1	204.3	17.3	30.13	53.6	0.0	13.01	-137.5	0	101.6	32.6	26.8	0	0	0	0	0	48.3	36.3	0.0
2021 02/28 21:30	41.7	11.3	198.8	13.4	30.13	53.5	0.0	13.02	-137.5	0	101.8	33.5	26.7	0	0	0	0	0	47.7	36.2	0.0
2021 02/28 21:45	41.2	12.0	194.4	14.1	30.13	53.5	0.0	13.01	-137.5	0	101.7	33.5	25.7	0	0	0	0	0	47.4	36.2	0.0
2021 02/28 22:00	40.7	14.4	186.0	9.8	30.13	53.5	0.0	13.00	-137.5	0	101.6	34.4	25.3	0	0	0	0	0	46.9	36.1	0.0
2021 02/28 22:15	40.0	17.3	175.6	8.2	30.13	53.5	0.0	13.00	-137.5	0	101.6	32.6	25.1	0	0	0	0	0	46.1	36.1	0.0
2021 02/28 22:30	40.7	22.1	184.4	7.9	30.12	53.5	0.0	13.01	-137.5	0	101.6	33.5	24.0	0	0	0	0	0	45.6	36.0	0.0
2021 02/28 22:45	40.6	27.1	211.2	13.7	30.12	53.6	0.0	13.01	-137.5	0	101.5	33.5	23.5	0	0	0	0	0	44.7	35.9	0.0
2021 02/28 23:00	40.0	28.4	215.2	12.1	30.11	53.6	0.0	13.01	-137.5	0	101.8	34.4	23.2	0	0	0	0	0	44.1	35.9	0.0
2021 02/28 23:15	39.9	27.9	216.0	12.0	30.11	53.7	0.0	13.03	-137.5	0	101.5	34.4	23.0	0	0	0	0	0	43.7	35.8	0.0
2021 02/28 23:30	39.4	32.0	231.9	8.8	30.10	53.7	0.0	13.02	-137.5	0	101.8	34.4	22.6	0	0	0	0	0	43.0	35.7	0.0
2021 02/28 23:45	38.2	36.6	223.7	17.9	30.10	53.7	0.0	13.00	-137.5	0	101.5	36.2	22.2	0	0	0	0	0	42.7	35.7	0.0
2021 03/01 00:00	38.4	39.6	225.8	22.0	30.09	53.7	0.0	13.01	-137.5	0	101.6	37.1	21.3	0	0	0	0	0	42.2	35.5	0.0
2021 03/01 00:15	37.9	43.2	225.4	19.1	30.08	53.7	0.0	13.01	-137.5	0	101.7	37.1	21.4	0	0	0	0	0	41.5	35.5	0.0
2021 03/01 00:30	37.1	52.0	229.3	19.6	30.08	53.7	0.0	13.02	-137.5	0	101.7	37.1	21.2	0	0	0	0	0	41.0	35.4	0.0
2021 03/01 00:45	37.7	52.5	224.2	21.1	30.08	53.6	0.0	12.99	-137.5	0	101.8	36.2	20.8	0	0	0	0	0	40.8	35.3	0.0
2021 03/01 01:00	37.3	55.4	212.6	20.6	30.07	53.6	0.0	13.01	-137.5	0	101.8	36.2	21.3	0	0	0	0	0	40.6	35.3	0.0
2021 03/01 01:15	38.2	54.8	222.3	20.0	30.07	53.5	0.0	13.00	-137.5	0	101.6	35.3	21.7	0	0	0	0	0	40.6	35.3	0.0
2021 03/01 01:30	37.7	54.3	213.0	20.1	30.07	53.5	0.0	13.01	-137.5	0	101.4	36.2	21.6	0	0	0	0	0	39.9	35.1	0.0
2021 03/01 01:45	37.4	52.5	213.7	18.2	30.06	53.5	0.0	13.01	-137.5	0	101.7	34.4	22.2	0	0	0	0	0	39.9	35.0	0.0
2021 03/01 02:00	37.9	52.8	222.4	18.0	30.06	53.5	0.0	13.02	-137.5	0	101.4	34.4	22.3	0	0	0	0	0	39.5	35.0	0.0
2021 03/01 02:15	38.7	52.3	216.0	21.2	30.05	53.5	0.0	13.01	-137.5	0	101.5	34.4	22.4	0	0	0	0	0	39.4	34.9	0.0
2021 03/01 02:30	38.7	50.8	199.4	21.8	30.03	53.4	0.0	12.99	-137.5	0	101.3	37.1	23.3	0	0	0	0	0	38.8	34.8	0.0
2021 03/01 02:45	38.3	52.1	204.6	15.4	30.03	53.3	0.0	13.02	-137.5	0	101.5	37.1	23.4	0	0	0	0	0	38.9	34.8	0.0
2021 03/01 03:00	38.9	51.3	226.8	16.1	30.03	53.3	0.0	13.02	-137.5	0	101.4	37.1	23.3	0	0	0	0	0	38.7	34.8	0.0
2021 03/01 03:15	38.3	51.2	225.4	18.2	30.02	53.1	0.0	13.02	-137.5	0	101.4	36.2	23.2	0	0	0	0	0	38.5	34.7	0.0
2021 03/01 03:30	39.4	49.1	242.4	17.3	30.01	53.1	0.0	13.01	-137.5	0	101.4	35.3	23.7	0	0	0	0	0	38.1	34.7	0.0
2021 03/01 03:45	38.2	50.4	173.4	18.0	30.00	53.1	0.0	12.99	-137.5	0	101.9	35.3	23.3	0	0	0	0	0	38.1	34.5	0.0
2021 03/01 04:00	38.7	49.3	201.6	20.7	29.99	53.1	0.0	13.01	-137.5	0	101.4	38.0	24.0	0	0	0	0	0	37.7	34.5	0.0
2021 03/01 04:15	38.9	48.9	194.9	20.0	29.99	53.1	0.0	13.00	-137.5	0	101.4	38.0	23.6	0	0	0	0	0	37.7	34.4	0.0
2021 03/01 04:30	38.9	49.7	203.9	16.4	29.99	53.0	0.0	13.00	-137.5	0	101.5	37.1	24.2	0	0	0	0	0	37.6	34.4	0.0
2021 03/01 04:45	39.0	49.0	196.5	15.7	29.99	52.9	0.0	13.02	-137.5	0	101.4	37.1	24.2	0	0	0	0	0	37.6	34.3	0.0
2021 03/01 05:00	39.0	48.7	196.8	14.9	29.99	52.9	0.0	13.00	-137.5	0	101.3	36.2	24.1	0	0	0	0	0	37.5	34.3	0.0
2021 03/01 05:15	38.9	50.0	210.5	14.4	29.98	52.9	0.0	13.02	-137.5	0	101.5	38.0	24.0	0	0	0	0	0	37.4	34.3	0.0
2021 03/01 05:30	38.4	50.5	212.7	12.7	29.98	52.9	0.0	12.99	-137.6	0	100.9	38.9	25.3	0	0	0	0	0	37.1	34.2	0.0
2021 03/01 05:45	38.9	48.9	239.1	13.9	29.98	52.9	0.0	13.00	-137.5	0	101.4	36.2	25.4	0	0	0	0	0	37.0	34.2	0.0
2021 03/01 06:00	38.4	50.2	235.8	14.7	29.98	52.9	0.0	13.02	-137.5	0	101.2	35.3	24.9	0	0	0	0	0	36.8	34.2	0.0
2021 03/01 06:15	38.7	49.1	241.3	16.9	29.97	52.9	0.3	13.00	-137.5	0	101.1	35.3	24.1	0	0	0	0	0	36.6	34.1	0.0
2021 03/01 06:30	37.9	50.5	220.2	20.1	29.97	52.9	8.1	13.00	-137.5	0	101.3	35.3	23.5	0	0	0	0	0	36.5	34.1	0.0
2021 03/01 06:45	37.0	53.3	210.0	20.9	29.97	52.9	74.0	13.02	-137.5	0	101.4	34.4	22.7	0	0	0	0	0	36.1	34.1	0.0
2021 03/01 07:00	36.5	54.6	234.8	22.5	29.97	52.9	229.0	13.01	-137.5	0	101.2	35.3	21.9	0	0	0	0	0	35.9	34.0	0.0
2021 03/01 07:15	36.5	54.8	228.9	23.2	29.97	52.9	370.8	13.01	-137.5	0	101.2	36.2	23.0	0	0	0	0	0	35.8	34.0	0.0
2021 03/01 07:30	36.1	55.4	218.0	24.0	29.98	52.9	462.1	12.99	-137.5	0	101.4	36.2	23.3	0	0	0	0	0	35.3	33.9	0.0
2021 03/01 07:45	37.0	54.7	226.3	23.8	29.98	52.9	407.1	12.99	-137.5	0	101.3	36.2	26.6	0	0	0	0	0	35.3	33.9	0.0
2021 03/01 08:00	36.2	55.2	246.8	20.4	29.98	52.9	449.5	13.00	-137.5	0	101.2	36.2	35.5	0	0	0	0	0	35.3	33.9	0.0
2021 03/01 08:15	36.1	55.0	239.7	21.5	29.99	52.9	492.6	12.99	-137.5	0	101.2	36.2	34.4	0	0	0	0	0	35.5	33.7	0.0
2021 03/01 08:30	36.6	53.3	245.4	24.6	29.99	53.1	565.2	13.00	-137.5	0	101.1	38.0	38.2	0	0	0	0	0	35.9	33.7	0.0
2021 03/01 08:45	36.1	55.1	229.7	23.2	29.99	53.1	507.9	13.01	-137.5	0	101.2	38.0	39.0	0	0	0	0	0	36.0	33.7	0.0
2021 03/01 09:00	35.6	57.0	239.7	21.3	29.99	53.1	518.7	13.03	-137.5	0	101.2	38.0	38.9	0	0	0	0	0	36.6	33.7	0.0
2021 03/01 09:15	35.7	56.9	226.0	21.3	30.00	53.3	516.7	13.02	-137.5	0	101.1	38.9	39.8	0	0	0	0	0	37.1	33.7	0.0
2021 03/01 09:30	35.7	56.9	222.4	23.4	30.00	53.4	544.2	12.99	-137.5	0	101.1	38.9	39.9	0	0	0	0	0	37.8	33.7	0.0
2021 03/01 09:45	36.2	57.7	242.3	18.2	30.01	53.5	581.8	13.02	-137.5	0	101.2	40.7	41.3	0	0	0	0	0	38.7	33.7	0.0
2021 03/01 10:00	36.7	57.8	229.6	21.3	30.01	53.7	497.0	13.03	-137.5	0	101.1	39.8	41.1	0	0	0	0	0	39.8	33.7	0.0
2021 03/01 10:15	37.2	58.7	227.5	22.4	30.01	53.7	504.8	13.00	-137.5	0	101.2	38.9	41.7	0	0	0	0	0	40.4	33.7	0.0
2021 03/01 10:30	37.2	59.8	246.1	28.1	30.01	53.9	537.1	13.02	-137.5	0	101.1	39.8	42.5	0	0	0	0	0	41.0	33.7	0.0
2021 03/01 10:45	37.6	60.6	220.0	22.9	30.02	54.1	693.5	13.01	-137.5	0	101.1	39.8	42.6	0	0	0	0	0	41.1	33.7	0.0
2021 03/01 11:00	38.2	60.3	257.2	19.2	30.03	54.1	718.0	13.00	-137.3	0	101.2	42.5	44.0	0	0	0	0	0	41.4	33.9	0.0
2021 03/01 11:15	38.2	58.4	232.5	24.8	30.02	54.4	707.0	13.02	-137.3	0	101.2	44.3	46.1	0	0	0	0	0	42.0	33.7	0.0
2021 03/01 11:30	38.2	58.6	214.3	27.3	30.03	54.6	701.0	13.00	-137.3	0	101.2	44.3	46.1	0	0	0	0	0	42.7	33.9	0.0
2021 03/01 11:45	38.4	57.4	235.9	24.8	30.04	54.6	719.0	13.01	-137.3	0	101.2	45.2	47.5	0	0	0	0	0	44.0	33.9	0.0
2021 03/01 12:00	38.9	58.3	249.2	18.2	30.04	54.8	717.0	13.01	-137.3	0	101.1	45.2	48.3	0	0	0	0	0	45.0	33.9	0.0
2021 03/01 12:15	40.1	59.6	259.8	19.3	30.04	55.0	740.0	13.01	-137.3	0	101.2	45.2	48.3	0	0	0	0	0	46.7	33.9	0.0
2021 03/01 12:30	39.0	58.0	243.4	22.1	30.04	55.2	742.0	13.01	-137.3	0	100.6	46.1	47.7	0	0	0	0	0	48.4	34.0	0.0
2021 03/01 12:45	39.1	57.5	252.0	23.4	30.04	55.4	749.0	13.02	-137.3	0	100.7	46.1	48.3	0	0	0	0	0	48.4	34.0	0.0
2021 03/01 13:00	39.5	57.5	242.7	17.6	30.04	55.6	699.6	13.00	-137.2	0	100.4	47.0	49.5	0	0	0	0	0	50.5	34.1	0.0
2021 03/01 13:15	39.3	58.0	254.6	23.6	30.04	55.9	682.3	13.01	-137.2	0	100.4	46.1	49.9	0	0	0	0	0	51.4	34.1	0.0
2021 03/01 13:30	39.0	60.7	223.4	19.9	30.05	56.1	681.3	13.01	-137.2	0	100.3	46.1	50.5	0	0	0	0	0	52.1	34.2	0.0
2021 03/01 13:45	38.8	61.3	255.9	16.7	30.05	56.5	679.2	13.02	-137.2	0	100.1	46.1	48.7	0	0	0	0	0	52.4	34.2	0.0
2021 03/01 14:00	38.9	63.0	224.4	15.8	30.05	56.7	636.8	13.01	-137.1	0	100.0	48.8	49.8	0	0	0	0	0	53.2	34.2	0.0
2021 03/01 14:15	40.2	60.9	241.6	20.8	30.06	57.1	626.3	13.03	-137.1	0	100.1	47.0	49.6	0	0	0	0	0	53.8	34.3	0.0
2021 03/01 14:30	39.0	59.0	249.0	17.2	30.06	57.4	622.9	13.01	-137.1	0	100.0	47.0	49.2	0	0	0	0	0	54.0	34.4	0.0
2021 03/01 14:45	38.8	59.0	283.3	16.2	30.07	57.8	600.5	13.03	-137.0	0	99.9	46.1	48.7	0	0	0	0	0	54.2	34.5	0.0
2021 03/01 15:00	39.1	57.5	244.0	20.5	30.07	58.0	582.9	13.01	-137.0	0	99.8	47.0	48.4	0	0	0	0	0	54.5	34.5	0.0
2021 03/01 15:15	38.5	59.6	205.4	14.8	30.07	58.4	577.1	13.01	-136.9	0	99.9	45.2	49.3	0	0	0	0	0	54.6	34.7	0.0
2021 03/01 15:30	39.0	55.4	268.2	15.8	30.09	58.6	591.7	13.03	-136.9	0	99.6	47.0	48.1	0	0	0	0	0	54.9	34.8	0.0
2021 03/01 15:45	38.6	58.8	245.6	12.6	30.09	58.9	552.0	13.03	-136.7	0	99.6	44.3	47.4	0	0	0	0	0	54.9	34.8	0.0
2021 03/01 16:00	37.8	63.0	290.8	11.5	30.09	59.3	433.2	13.01	-136.7	0	99.6	42.5	45.1	0	0	0	0	0	54.7	34.8	0.0
2021 03/01 16:15	38.0	73.0	328.0	12.5	30.09	59.5	381.7	13.00	-136.6	0	99.6	40.7	44.0	0	0	0	0	0	54.3	34.9	0.0
2021 03/01 16:30	36.2	73.1	303.7	12.2	30.09	59.6	362.0	13.02	-136.6	0	99.7	39.8	42.9	0	0	0	0	0	53.8	34.9	0.0
2021 03/01 16:45	36.0	74.2	287.9	6.6	30.10	60.0	356.9	13.03	-136.5	0	99.4	38.9	42.4	0	0	0	0	0	53.2	34.9	0.0
2021 03/01 17:00	36.1	73.3	311.2	13.1	30.10	60.2	355.8	13.02	-136.5	0	99.7	38.0	41.5	0	0	0	0	0	52.7	35.0	0.0
2021 03/01 17:15	35.7	79.0	310.4	11.9	30.10	60.3	315.8	13.01	-136.4	0	99.7	38.0	41.1	0	0	0	0	0	52.1	35.0	0.0
2021 03/01 17:30	35.4	81.3	308.1	11.1	30.11	60.5	251.4	13.03	-136.4	0	99.5	37.1	40.7	0	0	0	0	0	51.6	35.1	0.0
2021 03/01 17:45	35.1	82.8	308.0	14.1	30.11	60.6	147.9	13.01	-136.4	0	99.5	37.1	40.7	0	0	0	0	0	51.3	35.1	0.0
2021 03/01 18:00	34.6	82.3	323.0	18.5	30.10	60.7	53.6	13.00	-136.4	0	99.5	36.2	40.3	0	0	0	0	0	50.9	35.1	0.0
2021 03/01 18:15	34.0	82.2	323.5	17.3	30.10	60.8	7.5	13.02	-136.4	0	99.5	36.2	39.8	0	0	0	0	0	50.4	35.1	0.0
2021 03/01 18:30	34.9	79.4	317.9	16.8	30.11	60.8	0.7	13.03	-136.4	0	99.5	35.3	39.5	0	0	0	0	0	50.0	35.2	0.0
2021 03/01 18:45	33.6	78.2	312.4	18.1	30.11	60.8	0.0	13.02	-136.4	0	99.5	35.3	39.3	0	0	0	0	0	49.6	35.2	0.0
2021 03/01 19:00	33.4	80.6	305.8	15.2	30.11	60.7	0.0	13.01	-136.4	0	99.4	35.3	39.0	0	0	0	0	0	49.3	35.2	0.0
2021 03/01 19:15	33.5	80.8	313.0	15.3	30.12	60.7	0.0	13.02	-136.4	0	99.5	34.4	38.7	0	0	0	0	0	48.8	35.2	0.0
2021 03/01 19:30	33.9	67.8	316.0	16.5	30.11	60.7	0.0	13.03	-136.5	0	99.5	34.4	38.7	0	0	0	0	0	48.5	35.2	0.0
2021 03/01 19:45	33.9	62.3	324.7	17.3	30.11	60.6	0.0	13.03	-136.5	0	99.5	34.4	38.6	0	0	0	0	0	48.3	35.2	0.0
2021 03/01 20:00	33.9	58.5	315.8	18.0	30.11	60.5	0.0	13.01	-136.5	0	99.3	34.4	38.4	0	0	0	0	0	47.7	35.2	0.0
2021 03/01 20:15	33.5	59.6	320.7	17.2	30.11	60.3	0.0	13.02	-136.6	0	99.4	33.5	38.0	0	0	0	0	0	47.2	35.2	0.0
2021 03/01 20:30	33.3	60.6	307.2	14.1	30.11	60.3	0.0	13.02	-136.6	0	99.2	33.5	37.7	0	0	0	0	0	46.7	35.2	0.0
2021 03/01 20:45	33.4	61.6	316.3	17.4	30.10	60.1	0.0	13.01	-136.6	0	99.3	33.5	37.5	0	0	0	0	0	46.1	35.2	0.0
2021 03/01 21:00	33.5	61.2	312.8	13.2	30.10	60.1	0.0	13.02	-136.6	0	99.4	32.6	37.7	0	0	0	0	0	45.6	35.1	0.0
2021 03/01 21:15	33.8	60.6	314.1	9.5	30.10	59.9	0.0	13.03	-136.7	0	99.2	32.6	36.8	0	0	0	0	0	45.0	35.2	0.0
2021 03/01 21:30	34.6	54.9	314.0	9.5	30.10	59.7	0.0	13.00	-136.7	0	99.2	32.6	37.2	0	0	0	0	0	44.5	35.2	0.0
2021 03/01 21:45	34.1	58.6	320.0	10.8	30.11	59.7	0.0	13.03	-136.7	0	99.3	32.6	36.3	0	0	0	0	0	44.3	35.1	0.0
2021 03/01 22:00	35.1	58.7	333.3	8.7	30.10	59.5	0.0	13.03	-136.7	0	99.3	31.7	36.6	0	0	0	0	0	43.8	35.1	0.0
2021 03/01 22:15	34.5	62.1	342.4	8.2	30.10	59.4	0.0	13.01	-136.9	0	99.4	32.6	34.6	0	0	0	0	0	43.2	35.1	0.0
2021 03/01 22:30	35.6	58.9	323.6	6.9	30.10	59.2	0.0	13.02	-136.9	0	99.1	33.5	33.3	0	0	0	0	0	42.7	35.1	0.0
2021 03/01 22:45	35.7	58.4	329.9	3.4	30.10	59.0	0.0	13.03	-136.9	0	99.2	32.6	32.7	0	0	0	0	0	42.2	35.1	0.0
2021 03/01 23:00	36.0	59.8	0.2	0.7	30.09	58.8	0.0	13.00	-136.9	0	99.1	32.6	31.7	0	0	0	0	0	41.7	35.0	0.0
2021 03/01 23:15	35.5	61.1	0.5	0.0	30.09	58.9	0.0	13.02	-137.0	0	99.2	32.6	30.3	0	0	0	0	0	41.3	35.0	0.0
2021 03/01 23:30	36.3	60.4	123.3	8.0	30.09	58.6	0.0	13.00	-137.0	0	99.2	32.6	29.7	0	0	0	0	0	41.2	35.0	0.0
2021 03/01 23:45	35.9	63.9	151.3	13.7	30.08	58.4	0.0	13.02	-137.0	0	99.0	33.5	29.6	0	0	0	0	0	40.8	35.0	0.0
2021 03/02 00:00	36.0	68.1	135.5	14.7	30.07	58.2	0.0	13.01	-137.0	0	99.1	33.5	29.0	0	0	0	0	0	40.6	34.9	0.0
2021 03/02 00:15	34.8	69.4	126.8	15.4	30.07	58.1	0.0	13.00	-137.0	0	99.2	31.7	28.1	0	0	0	0	0	40.2	34.9	0.0
2021 03/02 00:30	35.4	71.2	131.0	11.9	30.07	58.0	0.0	13.02	-137.1	0	98.8	31.7	27.7	0	0	0	0	0	39.7	34.8	0.0
2021 03/02 00:45	33.8	70.4	161.8	9.2	30.07	57.8	0.0	13.03	-137.1	0	99.2	32.6	26.7	0	0	0	0	0	39.6	34.8	0.0
2021 03/02 01:00	34.4	67.2	156.1	8.0	30.07	57.6	0.0	13.03	-137.1	0	99.3	31.7	27.8	0	0	0	0	0	39.2	34.8	0.0
2021 03/02 01:15	33.6	69.8	121.9	2.1	30.07	57.5	0.0	13.01	-137.1	0	99.0	32.6	28.4	0	0	0	0	0	38.8	34.7	0.0
2021 03/02 01:30	34.6	66.2	164.4	7.8	30.06	57.4	0.0	13.02	-137.1	0	98.9	33.5	28.4	0	0	0	0	0	38.5	34.7	0.0
2021 03/02 01:45	34.8	66.4	168.1	6.4	30.06	57.1	0.0	13.03	-137.1	0	99.0	33.5	28.4	0	0	0	0	0	38.1	34.5	0.0
2021 03/02 02:00	35.5	66.4	182.9	5.4	30.06	57.0	0.0	13.03	-137.2	0	99.0	33.5	29.0	0	0	0	0	0	38.1	34.5	0.0
2021 03/02 02:15	34.9	68.0	230.3	5.3	30.05	56.9	0.0	13.02	-137.2	0	99.2	34.4	28.9	0	0	0	0	0	37.9	34.5	0.0
2021 03/02 02:30	31.8	69.6	314.0	10.7	30.05	56.7	0.0	13.03	-137.2	0	99.1	32.6	32.3	0	0	0	0	0	37.9	34.4	0.0
2021 03/02 02:45	30.8	67.0	310.2	19.4	30.04	56.5	0.0	12.99	-137.2	0	99.0	32.6	35.1	0	0	0	0	0	37.7	34.4	0.0
2021 03/02 03:00	31.2	65.1	329.7	17.3	30.04	56.4	0.0	13.02	-137.2	0	99.2	32.6	35.0	0	0	0	0	0	37.7	34.4	0.0
2021 03/02 03:15	31.4	65.4	325.7	16.0	30.04	56.3	0.0	13.00	-137.2	0	99.0	32.6	35.1	0	0	0	0	0	37.7	34.3	0.0
2021 03/02 03:30	31.6	65.3	321.5	18.0	30.04	56.1	0.0	13.02	-137.2	0	99.0	32.6	34.9	0	0	0	0	0	37.6	34.3	0.0
2021 03/02 03:45	31.4	65.8	312.2	13.8	30.04	56.1	0.0	13.02	-137.2	0	98.9	32.6	34.8	0	0	0	0	0	37.5	34.3	0.0
2021 03/02 04:00	31.2	66.8	308.6	13.7	30.04	55.9	0.0	12.99	-137.2	0	99.1	31.7	34.9	0	0	0	0	0	37.5	34.3	0.0
2021 03/02 04:15	31.1	67.2	320.1	16.5	30.03	55.9	0.0	13.03	-137.2	0	98.9	31.7	34.9	0	0	0	0	0	37.2	34.2	0.0
2021 03/02 04:30	31.3	67.8	325.9	16.2	30.03	55.8	0.0	13.00	-137.3	0	99.0	31.7	34.8	0	0	0	0	0	37.2	34.2	0.0
2021 03/02 04:45	31.1	66.4	320.8	13.2	30.03	55.6	0.0	13.01	-137.3	0	98.8	31.7	34.1	0	0	0	0	0	37.0	34.2	0.0
2021 03/02 05:00	31.3	66.2	319.6	11.7	30.03	55.6	0.0	13.03	-137.3	0	99.0	30.8	33.4	0	0	0	0	0	37.1	34.1	0.0
2021 03/02 05:15	31.6	66.5	323.1	11.9	30.02	55.5	0.0	13.03	-137.3	0	99.0	30.8	32.6	0	0	0	0	0	36.9	34.1	0.0
2021 03/02 05:30	32.2	64.2	320.5	10.1	30.02	55.4	0.0	13.03	-137.3	0	98.9	30.8	31.3	0	0	0	0	0	36.7	34.1	0.0
2021 03/02 05:45	32.5	63.4	312.0	8.8	30.01	55.4	0.0	12.99	-137.3	0	98.8	30.8	30.4	0	0	0	0	0	36.6	34.1	0.0
2021 03/02 06:00	32.7	64.3	285.3	6.0	30.01	55.2	0.0	13.01	-137.3	0	98.8	30.8	29.4	0	0	0	0	0	36.2	34.1	0.0
2021 03/02 06:15	32.8	64.1	229.2	5.9	30.00	55.2	0.7	13.00	-137.3	0	98.7	31.7	28.5	0	0	0	0	0	36.0	34.0	0.0
2021 03/02 06:30	33.8	65.2	233.0	6.9	30.00	55.2	10.2	13.01	-137.3	0	98.8	30.8	27.2	0	0	0	0	0	35.7	34.0	0.0
2021 03/02 06:45	33.4	65.5	231.9	8.5	30.00	55.0	74.0	13.02	-137.3	0	98.7	31.7	27.3	0	0	0	0	0	35.3	34.0	0.0
2021 03/02 07:00	34.0	68.7	221.2	12.2	29.99	55.0	218.2	13.00	-137.3	0	98.8	32.6	26.1	0	0	0	0	0	35.0	33.9	0.0
2021 03/02 07:15	32.7	67.2	219.1	12.2	30.00	54.8	362.0	13.00	-137.3	0	98.8	33.5	26.7	0	0	0	0	0	34.7	33.9	0.0
2021 03/02 07:30	33.5	65.6	226.7	8.5	29.99	54.8	455.0	13.01	-137.3	0	98.8	33.5	28.0	0	0	0	0	0	34.8	33.9	0.0
2021 03/02 07:45	33.5	65.7	193.0	14.0	29.99	54.6	521.5	13.03	-137.3	0	98.9	34.4	29.0	0	0	0	0	0	34.4	33.7	0.0
2021 03/02 08:00	33.5	66.2	205.4	12.9	29.99	54.5	565.6	13.00	-137.3	0	98.7	37.1	28.5	0	0	0	0	0	34.5	33.7	0.0
2021 03/02 08:15	33.6	67.3	228.9	13.2	29.99	54.4	601.2	13.00	-137.5	0	98.8	36.2	30.6	0	0	0	0	0	34.8	33.7	0.0
2021 03/02 08:30	34.8	67.5	219.0	13.7	29.99	54.3	626.3	13.01	-137.5	0	98.9	37.1	32.7	0	0	0	0	0	35.4	33.6	0.0
2021 03/02 08:45	34.0	65.3	236.1	12.6	30.00	54.1	643.9	13.00	-137.5	0	98.8	37.1	36.7	0	0	0	0	0	36.6	33.6	0.0
2021 03/02 09:00	34.4	65.3	240.5	11.3	30.00	54.1	656.8	13.01	-137.5	0	98.7	38.0	38.1	0	0	0	0	0	37.8	33.6	0.0
2021 03/02 09:15	34.5	64.7	225.1	11.9	29.99	54.1	668.4	13.01	-137.5	0	98.9	38.9	40.6	0	0	0	0	0	39.4	33.6	0.0
2021 03/02 09:30	34.6	65.0	215.7	13.9	29.99	54.1	678.5	13.02	-137.5	0	98.5	41.6	41.3	0	0	0	0	0	41.2	33.6	0.0
2021 03/02 09:45	35.1	62.8	247.6	14.1	29.99	54.1	686.7	13.01	-137.5	0	98.2	44.3	42.0	0	0	0	0	0	41.7	33.6	0.0
2021 03/02 10:00	35.4	63.0	222.6	14.8	29.99	54.1	693.5	13.01	-137.3	0	98.7	41.6	42.5	0	0	0	0	0	43.5	33.6	0.0
2021 03/02 10:15	35.5	62.3	238.3	16.2	29.98	54.3	697.5	13.01	-137.5	0	98.6	41.6	43.8	0	0	0	0	0	45.0	33.7	0.0
2021 03/02 10:30	35.7	64.1	243.0	15.2	29.98	54.4	702.0	13.02	-137.3	0	98.5	41.6	43.6	0	0	0	0	0	46.4	33.6	0.0
2021 03/02 10:45	36.1	63.6	228.3	14.5	29.98	54.6	705.0	13.02	-137.3	0	98.8	42.5	44.0	0	0	0	0	0	47.8	33.7	0.0
2021 03/02 11:00	36.7	63.0	230.0	14.8	29.98	54.8	695.5	13.01	-137.3	0	98.8	42.5	44.7	0	0	0	0	0	49.0	33.7	0.0
2021 03/02 11:15	36.6	62.0	245.4	16.2	29.98	54.9	692.1	13.02	-137.3	0	98.8	42.5	45.6	0	0	0	0	0	50.2	33.9	0.0
2021 03/02 11:30	37.0	60.5	227.5	15.7	29.98	55.0	674.8	13.02	-137.3	0	98.8	43.4	46.0	0	0	0	0	0	51.3	34.0	0.0
2021 03/02 11:45	37.1	60.9	218.6	18.7	29.97	55.4	678.2	13.02	-137.3	0	98.8	43.4	46.0	0	0	0	0	0	51.9	34.0	0.0
2021 03/02 12:00	38.2	60.8	260.9	10.5	29.97	55.6	691.8	13.03	-137.2	0	98.6	44.3	46.5	0	0	0	0	0	52.8	34.1	0.0
2021 03/02 12:15	38.0	58.3	225.1	19.9	29.97	55.9	710.0	13.01	-137.2	0	98.7	43.4	47.7	0	0	0	0	0	53.7	34.1	0.0
2021 03/02 12:30	38.3	56.4	229.5	20.1	29.96	56.1	708.0	12.99	-137.2	0	98.5	46.1	47.8	0	0	0	0	0	54.5	34.3	0.0
2021 03/02 12:45	38.7	57.2	250.5	17.8	29.96	56.4	701.0	13.01	-137.2	0	98.6	46.1	47.6	0	0	0	0	0	55.1	34.3	0.0
2021 03/02 13:00	39.0	56.5	223.9	16.2	29.96	56.7	689.7	13.01	-137.1	0	98.4	47.0	48.0	0	0	0	0	0	55.6	34.4	0.0
2021 03/02 13:15	38.7	54.8	221.0	20.1	29.95	56.9	677.9	13.01	-137.1	0	98.2	47.0	48.0	0	0	0	0	0	55.9	34.5	0.0
2021 03/02 13:30	39.1	56.3	229.2	16.6	29.95	57.1	660.6	13.01	-137.1	0	98.1	47.0	48.8	0	0	0	0	0	56.2	34.7	0.0
2021 03/02 13:45	39.3	56.3	268.3	17.1	29.95	57.6	644.9	13.03	-137.0	0	97.9	47.9	47.8	0	0	0	0	0	56.4	34.8	0.0
2021 03/02 14:00	40.6	56.4	250.5	14.8	29.94	57.8	631.7	13.01	-137.0	0	98.0	47.0	48.6	0	0	0	0	0	56.6	34.8	0.0
2021 03/02 14:15	39.6	51.8	223.6	19.5	29.94	58.0	617.5	13.03	-137.0	0	98.2	47.0	49.4	0	0	0	0	0	56.7	35.0	0.0
2021 03/02 14:30	39.8	51.5	250.1	18.1	29.93	58.4	605.6	13.00	-136.9	0	98.2	47.0	50.6	0	0	0	0	0	56.8	35.0	0.0
2021 03/02 14:45	39.8	50.1	234.5	16.1	29.94	58.6	593.7	13.01	-136.9	0	97.9	47.0	49.7	0	0	0	0	0	56.9	35.1	0.0
2021 03/02 15:00	39.9	51.2	256.3	16.8	29.94	59.0	582.9	13.01	-136.7	0	97.8	47.0	50.1	0	0	0	0	0	56.8	35.2	0.0
2021 03/02 15:15	39.8	52.1	288.0	18.2	29.93	59.3	569.6	13.02	-136.7	0	97.8	47.0	48.9	0	0	0	0	0	56.9	35.3	0.0
2021 03/02 15:30	40.0	54.8	260.0	14.2	29.93	59.5	558.7	13.02	-136.6	0	97.5	46.1	48.1	0	0	0	0	0	57.0	35.3	0.0
2021 03/02 15:45	39.8	56.3	256.3	16.9	29.93	59.8	547.9	13.02	-136.6	0	97.3	45.2	46.8	0	0	0	0	0	57.0	35.4	0.0
2021 03/02 16:00	41.0	56.3	215.1	16.9	29.94	60.1	538.3	13.00	-136.5	0	97.6	46.1	45.9	0	0	0	0	0	56.8	35.5	0.0
2021 03/02 16:15	39.9	55.5	282.5	14.7	29.94	60.3	515.6	13.00	-136.5	0	97.5	45.2	45.6	0	0	0	0	0	56.6	35.5	0.0
2021 03/02 16:30	39.5	55.4	238.4	15.8	29.94	60.6	485.1	13.02	-136.4	0	97.6	44.3	44.8	0	0	0	0	0	56.4	35.5	0.0
2021 03/02 16:45	39.4	55.2	239.8	12.7	29.94	60.9	444.0	13.02	-136.2	0	97.5	43.4	44.5	0	0	0	0	0	55.9	35.7	0.0
2021 03/02 17:00	38.8	54.4	247.3	14.1	29.94	61.1	365.3	13.02	-136.2	0	97.1	41.6	44.1	0	0	0	0	0	55.4	35.7	0.0
2021 03/02 17:15	37.5	59.1	299.5	10.2	29.95	61.4	314.5	13.00	-136.2	0	96.8	39.8	42.6	0	0	0	0	0	54.7	35.7	0.0
2021 03/02 17:30	36.6	66.1	298.9	13.7	29.95	61.5	244.6	13.00	-136.1	0	97.1	38.0	42.1	0	0	0	0	0	54.1	35.7	0.0
2021 03/02 17:45	35.8	70.1	316.7	10.2	29.95	61.6	174.0	12.99	-136.1	0	97.2	37.1	40.8	0	0	0	0	0	53.8	35.8	0.0
2021 03/02 18:00	35.4	77.9	300.8	12.0	29.95	61.7	46.1	13.01	-136.1	0	97.0	35.3	40.4	0	0	0	0	0	53.1	35.7	0.0
2021 03/02 18:15	35.0	81.2	311.0	12.7	29.95	61.8	5.4	13.01	-136.1	0	97.1	34.4	39.5	0	0	0	0	0	52.4	35.7	0.0
2021 03/02 18:30	34.6	83.2	308.6	12.2	29.95	61.8	0.0	13.02	-136.1	0	96.8	34.4	39.4	0	0	0	0	0	51.6	35.7	0.0
2021 03/02 18:45	34.4	84.5	299.6	11.3	29.96	61.8	0.0	13.01	-136.1	0	96.7	34.4	39.0	0	0	0	0	0	51.0	35.8	0.0
2021 03/02 19:00	34.5	83.1	283.5	7.4	29.95	61.8	0.0	13.01	-136.2	0	96.7	33.5	38.5	0	0	0	0	0	50.2	35.7	0.0
2021 03/02 19:15	35.0	75.1	293.0	12.1	29.96	61.8	0.0	13.03	-136.2	0	97.3	33.5	38.2	0	0	0	0	0	49.4	35.7	0.0
2021 03/02 19:30	34.6	79.2	281.5	11.9	29.96	61.7	0.0	13.01	-136.2	0	97.4	33.5	37.3	0	0	0	0	0	48.7	35.7	0.0
2021 03/02 19:45	34.3	78.6	259.0	11.3	29.96	61.6	0.0	13.03	-136.2	0	96.8	33.5	37.3	0	0	0	0	0	48.4	35.7	0.0
2021 03/02 20:00	34.3	72.9	290.3	11.8	29.95	61.5	0.0	13.03	-136.4	0	97.0	33.5	36.8	0	0	0	0	0	47.7	35.5	0.0
2021 03/02 20:15	34.0	74.4	253.9	8.8	29.95	61.4	0.0	13.03	-136.4	0	96.9	32.6	36.7	0	0	0	0	0	47.1	35.5	0.0
2021 03/02 20:30	33.9	75.8	277.6	10.8	29.94	61.2	0.0	13.02	-136.4	0	97.7	32.6	36.7	0	0	0	0	0	46.5	35.5	0.0
2021 03/02 20:45	33.5	74.2	271.8	10.8	29.94	61.1	0.0	13.01	-136.4	0	97.0	32.6	36.1	0	0	0	0	0	45.9	35.5	0.0
2021 03/02 21:00	33.9	72.3	232.0	10.4	29.94	60.9	0.0	13.00	-136.5	0	97.1	32.6	36.6	0	0	0	0	0	45.2	35.4	0.0
2021 03/02 21:15	33.9	71.9	211.6	9.2	29.94	60.8	0.0	13.03	-136.5	0	96.8	31.7	36.8	0	0	0	0	0	45.0	35.4	0.0
2021 03/02 21:30	34.1	71.3	265.4	11.3	29.94	60.6	0.0	13.01	-136.5	0	97.0	31.7	36.4	0	0	0	0	0	44.1	35.4	0.0
2021 03/02 21:45	35.4	62.1	244.7	10.1	29.93	60.5	0.0	13.01	-136.6	0	97.0	31.7	35.0	0	0	0	0	0	43.9	35.3	0.0
2021 03/02 22:00	35.1	61.9	238.6	8.9	29.93	60.3	0.0	13.03	-136.6	0	97.0	31.7	33.0	0	0	0	0	0	43.3	35.3	0.0
2021 03/02 22:15	35.2	63.4	243.3	8.9	29.92	60.1	0.0	13.00	-136.6	0	97.2	31.7	31.3	0	0	0	0	0	42.7	35.3	0.0
2021 03/02 22:30	35.1	64.1	239.4	10.4	29.91	59.9	0.0	13.02	-136.7	0	96.9	32.6	30.8	0	0	0	0	0	42.2	35.2	0.0
2021 03/02 22:45	35.1	64.9	242.3	8.9	29.91	59.9	6.8	13.02	-136.7	0	96.6	32.6	30.5	0	0	0	0	0	41.7	35.1	0.0
2021 03/02 23:00	35.5	63.0	243.4	9.2	29.90	59.7	0.0	13.01	-136.7	0	96.4	31.7	30.0	0	0	0	0	0	41.3	35.1	0.0
2021 03/02 23:15	35.9	56.7	236.9	8.6	29.90	59.5	0.0	12.99	-136.7	0	96.8	31.7	30.2	0	0	0	0	0	41.1	35.1	0.0
2021 03/02 23:30	36.8	57.7	238.6	6.7	29.90	59.5	0.0	13.00	-136.9	0	96.6	31.7	28.9	0	0	0	0	0	40.6	35.0	0.0
2021 03/02 23:45	35.0	68.1	233.7	10.8	29.89	59.3	0.0	13.00	-136.9	0	97.2	31.7	27.9	0	0	0	0	0	40.4	34.9	0.0
2021 03/03 00:00	35.4	64.1	230.1	9.9	29.89	59.1	0.0	13.01	-136.9	0	96.8	31.7	26.8	0	0	0	0	0	39.9	34.9	0.0
2021 03/03 00:15	36.0	63.5	247.8	7.9	29.88	58.9	0.0	13.03	-136.9	0	96.8	31.7	25.9	0	0	0	0	0	39.5	34.8	0.0
2021 03/03 00:30	36.1	65.8	238.3	9.7	29.88	58.9	0.0	13.00	-137.0	0	96.3	31.7	26.4	0	0	0	0	0	39.3	34.8	0.0
2021 03/03 00:45	35.9	58.4	232.9	10.4	29.87	58.6	0.0	13.01	-137.0	0	96.9	31.7	25.4	0	0	0	0	0	38.8	34.7	0.0
2021 03/03 01:00	36.2	58.5	237.8	10.5	29.87	58.4	0.0	13.00	-137.0	0	96.6	32.6	25.2	0	0	0	0	0	38.5	34.7	0.0
2021 03/03 01:15	35.0	64.0	203.6	11.4	29.87	58.3	0.0	13.02	-137.0	0	96.6	33.5	24.5	0	0	0	0	0	38.2	34.5	0.0
2021 03/03 01:30	35.2	67.5	221.0	11.2	29.86	58.2	0.0	13.02	-137.0	0	97.0	33.5	24.1	0	0	0	0	0	37.9	34.4	0.0
2021 03/03 01:45	35.9	59.0	215.4	12.1	29.86	58.0	0.0	13.01	-137.1	0	96.8	34.4	24.1	0	0	0	0	0	37.8	34.4	0.0
2021 03/03 02:00	36.0	58.4	208.3	18.5	29.85	57.8	0.0	12.99	-137.1	0	97.3	34.4	23.7	0	0	0	0	0	37.2	34.3	0.0
2021 03/03 02:15	36.2	58.1	204.9	18.6	29.84	57.6	0.0	13.02	-137.1	0	96.6	34.4	23.5	0	0	0	0	0	36.8	34.2	0.0
2021 03/03 02:30	36.5	57.3	203.3	19.1	29.83	57.6	0.0	13.00	-137.1	0	97.5	33.5	23.1	0	0	0	0	0	36.6	34.2	0.0
2021 03/03 02:45	37.0	54.5	198.1	21.9	29.82	57.4	0.0	12.99	-137.1	0	96.4	34.4	23.2	0	0	0	0	0	36.2	34.0	0.0
2021 03/03 03:00	37.3	52.0	202.4	22.2	29.82	57.1	0.0	13.00	-137.1	0	96.8	33.5	23.2	0	0	0	0	0	35.9	34.0	0.0
2021 03/03 03:15	37.1	53.1	203.2	20.5	29.81	56.9	0.0	12.99	-137.2	0	96.6	33.5	23.2	0	0	0	0	0	35.5	33.9	0.0
2021 03/03 03:30	37.1	51.4	204.5	20.4	29.80	56.7	0.0	13.00	-137.2	0	96.9	33.5	22.7	0	0	0	0	0	35.2	33.9	0.0
2021 03/03 03:45	36.8	51.5	205.3	19.3	29.80	56.5	0.0	12.99	-137.2	0	96.6	37.1	22.7	0	0	0	0	0	35.1	33.9	0.0
2021 03/03 04:00	36.7	51.2	204.6	21.4	29.79	56.3	0.0	13.01	-137.2	0	97.3	37.1	22.8	0	0	0	0	0	34.8	33.7	0.0
2021 03/03 04:15	37.2	46.7	199.7	22.0	29.79	56.1	0.0	12.99	-137.2	0	96.0	34.4	23.1	0	0	0	0	0	34.4	33.6	0.0
2021 03/03 04:30	38.3	46.8	202.5	20.6	29.79	56.0	0.0	13.02	-137.2	0	96.3	33.5	22.4	0	0	0	0	0	34.3	33.6	0.0
2021 03/03 04:45	37.3	46.3	208.5	19.1	29.78	55.9	0.0	13.01	-137.3	0	96.9	33.5	21.6	0	0	0	0	0	34.0	33.5	0.0
2021 03/03 05:00	37.1	47.4	200.7	20.8	29.78	55.6	0.0	13.00	-137.3	0	97.0	33.5	22.1	0	0	0	0	0	33.7	33.4	0.0
2021 03/03 05:15	36.7	49.1	202.2	19.3	29.78	55.4	0.0	13.01	-137.3	0	96.1	33.5	21.6	0	0	0	0	0	33.7	33.4	0.0
2021 03/03 05:30	37.0	48.2	194.3	16.2	29.78	55.4	0.0	13.00	-137.3	0	96.8	32.6	20.7	0	0	0	0	0	33.5	33.3	0.0
2021 03/03 05:45	36.7	49.1	186.7	16.7	29.78	55.2	0.0	13.02	-137.3	0	96.9	33.5	21.0	0	0	0	0	0	33.3	33.3	0.0
2021 03/03 06:00	36.5	50.5	217.6	16.0	29.77	55.1	0.0	13.00	-137.3	0	97.2	34.4	21.5	0	0	0	0	0	33.2	33.2	0.0
2021 03/03 06:15	36.5	48.2	204.2	18.7	29.77	55.0	0.7	12.99	-137.3	0	96.4	33.5	21.8	0	0	0	0	0	33.2	33.2	0.0
2021 03/03 06:30	36.7	47.0	182.3	17.9	29.76	55.0	12.9	13.02	-137.3	0	96.7	33.5	21.3	0	0	0	0	0	32.9	33.1	0.0
2021 03/03 06:45	37.3	43.8	199.5	21.1	29.76	54.8	79.4	13.02	-137.3	0	97.3	34.4	21.2	0	0	0	0	0	32.6	33.0	0.0
2021 03/03 07:00	37.2	43.9	210.8	19.4	29.76	54.8	191.7	13.01	-137.3	0	96.0	36.2	21.5	0	0	0	0	0	32.4	33.0	0.0
2021 03/03 07:15	37.4	43.2	201.1	21.6	29.76	54.6	317.9	12.99	-137.3	0	96.6	35.3	21.4	0	0	0	0	0	32.3	32.9	0.0
2021 03/03 07:30	37.8	42.9	180.2	17.9	29.76	54.6	433.6	13.01	-137.5	0	96.8	36.2	22.5	0	0	0	0	0	32.1	32.7	0.0
2021 03/03 07:45	37.6	42.5	203.1	18.1	29.76	54.4	506.9	13.01	-137.5	0	97.2	38.0	22.7	0	0	0	0	0	32.0	32.7	0.0
2021 03/03 08:00	38.0	41.3	213.5	19.1	29.77	54.4	550.6	13.00	-137.5	0	97.0	38.9	24.1	0	0	0	0	0	31.7	32.7	0.0
2021 03/03 08:15	38.2	41.0	228.4	17.2	29.77	54.4	590.3	13.01	-137.5	0	96.3	39.8	25.8	0	0	0	0	0	32.1	32.7	0.0
2021 03/03 08:30	38.3	40.5	193.6	14.0	29.77	54.4	617.5	13.00	-137.5	0	96.5	40.7	26.9	0	0	0	0	0	32.5	32.6	0.0
2021 03/03 08:45	38.7	40.9	205.2	12.0	29.77	54.4	637.8	13.00	-137.5	0	96.4	41.6	28.7	0	0	0	0	0	33.5	32.6	0.0
2021 03/03 09:00	39.0	40.6	189.9	11.9	29.77	54.4	652.1	13.00	-137.5	0	96.3	43.4	30.8	0	0	0	0	0	35.0	32.6	0.0
2021 03/03 09:15	39.3	41.6	212.7	9.1	29.77	54.4	661.6	13.00	-137.5	0	96.9	42.5	33.3	0	0	0	0	0	37.0	32.6	0.0
2021 03/03 09:30	39.1	40.4	192.0	16.8	29.77	54.6	673.1	12.99	-137.5	0	96.3	46.1	35.7	0	0	0	0	0	38.9	32.7	0.0
2021 03/03 09:45	39.6	41.3	211.1	9.4	29.77	54.6	684.6	13.01	-137.5	0	96.4	47.0	42.1	0	0	0	0	0	39.9	32.7	0.0
2021 03/03 10:00	40.0	39.6	199.8	15.2	29.77	54.4	690.4	13.01	-137.5	0	96.2	48.8	44.8	0	0	0	0	0	41.9	32.7	0.0
2021 03/03 10:15	40.4	39.8	224.2	14.8	29.77	54.1	692.8	13.01	-137.5	0	96.4	46.1	45.6	0	0	0	0	0	43.5	32.9	0.0
2021 03/03 10:30	40.2	38.5	222.9	15.1	29.76	53.9	697.5	13.02	-137.5	0	96.8	46.1	46.2	0	0	0	0	0	45.2	33.0	0.0
2021 03/03 10:45	40.9	37.5	207.5	14.4	29.76	53.7	702.0	13.01	-137.5	0	96.4	45.2	47.5	0	0	0	0	0	46.8	33.1	0.0
2021 03/03 11:00	41.1	38.2	243.6	12.1	29.76	53.5	695.5	13.03	-137.5	0	96.2	47.9	47.2	0	0	0	0	0	48.3	33.2	0.0
2021 03/03 11:15	41.7	37.0	213.3	8.3	29.75	53.3	691.4	13.01	-137.6	0	96.4	47.9	48.6	0	0	0	0	0	49.7	33.3	0.0
2021 03/03 11:30	41.6	36.4	236.8	10.9	29.75	53.1	679.2	13.02	-137.6	0	97.0	47.9	48.7	0	0	0	0	0	51.2	33.4	0.0
2021 03/03 11:45	42.4	36.2	253.4	6.9	29.75	52.9	682.6	13.01	-137.6	0	96.6	47.9	49.8	0	0	0	0	0	51.7	33.5	0.0
2021 03/03 12:00	43.0	35.5	171.7	6.6	29.75	52.6	686.7	13.01	-137.6	0	96.7	49.7	49.7	0	0	0	0	0	52.9	33.6	0.0
2021 03/03 12:15	42.9	34.7	228.9	9.5	29.74	52.6	706.0	13.01	-137.6	0	96.2	49.7	51.0	0	0	0	0	0	54.0	33.9	0.0
2021 03/03 12:30	43.3	34.5	200.4	4.6	29.74	52.6	704.0	13.02	-137.6	0	96.2	53.3	51.0	0	0	0	0	0	55.1	34.0	0.0
2021 03/03 12:45	43.5	33.8	234.0	11.5	29.74	52.6	696.5	13.01	-137.6	0	96.0	54.2	50.8	0	0	0	0	0	55.9	34.2	0.0
2021 03/03 13:00	44.6	33.8	328.9	2.4	29.74	52.9	684.0	13.01	-137.6	0	95.8	55.1	52.4	0	0	0	0	0	56.7	34.3	0.0
2021 03/03 13:15	45.4	33.3	185.4	6.8	29.73	52.9	674.5	13.02	-137.6	0	96.4	54.2	53.3	0	0	0	0	0	57.5	34.4	0.0
2021 03/03 13:30	44.5	32.8	178.2	8.3	29.73	53.1	657.5	13.02	-137.6	0	95.8	55.1	52.9	0	0	0	0	0	57.9	34.7	0.0
2021 03/03 13:45	45.1	31.1	218.4	6.5	29.73	53.1	642.2	13.01	-137.6	0	95.9	55.1	53.9	0	0	0	0	0	58.0	34.8	0.0
2021 03/03 14:00	44.9	32.8	182.7	8.0	29.73	53.3	630.7	13.02	-137.6	0	95.7	55.1	53.0	0	0	0	0	0	58.3	34.9	0.0
2021 03/03 14:15	45.4	31.4	221.3	6.6	29.73	53.3	617.5	13.02	-137.6	0	95.8	56.9	53.2	0	0	0	0	0	58.4	35.1	0.0
2021 03/03 14:30	45.3	32.7	222.6	3.9	29.73	53.5	610.0	13.02	-137.6	0	96.4	53.3	53.0	0	0	0	0	0	58.8	35.2	0.0
2021 03/03 14:45	45.4	32.0	212.5	5.3	29.73	53.6	601.2	13.01	-137.5	0	95.9	55.1	52.0	0	0	0	0	0	58.8	35.3	0.0
2021 03/03 15:00	45.1	32.4	216.2	4.2	29.73	53.7	585.6	13.03	-137.5	0	96.0	54.2	51.1	0	0	0	0	0	58.8	35.4	0.0
2021 03/03 15:15	45.1	32.5	277.7	8.0	29.74	53.9	577.1	13.02	-137.5	0	96.0	54.2	51.0	0	0	0	0	0	59.1	35.5	0.0
2021 03/03 15:30	45.1	33.7	220.1	6.9	29.74	53.9	563.9	12.99	-137.5	0	96.2	53.3	48.6	0	0	0	0	0	59.2	35.7	0.0
2021 03/03 15:45	45.3	34.2	230.7	7.1	29.74	54.0	549.6	13.00	-137.5	0	95.7	52.4	46.9	0	0	0	0	0	59.2	35.7	0.0
2021 03/03 16:00	45.1	37.2	223.5	7.9	29.74	54.1	532.0	13.03	-137.5	0	95.6	51.5	48.0	0	0	0	0	0	59.4	35.8	0.0
2021 03/03 16:15	45.3	36.4	240.3	9.4	29.74	54.1	513.3	13.02	-137.5	0	95.5	49.7	47.5	0	0	0	0	0	59.2	35.8	0.0
2021 03/03 16:30	43.0	47.8	303.5	10.7	29.74	54.3	482.1	13.01	-137.5	0	95.1	47.9	46.8	0	0	0	0	0	59.0	35.9	0.0
2021 03/03 16:45	42.2	52.1	303.0	13.4	29.74	54.4	461.7	13.01	-137.5	0	95.6	46.1	46.3	0	0	0	0	0	58.4	35.9	0.0
2021 03/03 17:00	41.5	55.7	292.1	10.4	29.74	54.6	436.3	13.02	-137.5	0	95.3	44.3	44.4	0	0	0	0	0	57.8	35.9	0.0
2021 03/03 17:15	41.1	57.3	304.6	8.3	29.75	54.8	398.6	13.00	-137.5	0	95.3	43.4	42.7	0	0	0	0	0	57.2	35.9	0.0
2021 03/03 17:30	41.2	62.5	297.7	12.1	29.75	55.1	339.6	13.02	-137.3	0	95.6	41.6	44.2	0	0	0	0	0	56.2	35.9	0.0
2021 03/03 17:45	39.6	63.7	280.8	11.3	29.75	55.4	224.6	13.03	-137.3	0	95.9	40.7	43.9	0	0	0	0	0	55.9	35.9	0.0
2021 03/03 18:00	38.4	70.2	299.0	9.5	29.76	55.6	63.1	13.02	-137.3	0	95.3	38.9	43.0	0	0	0	0	0	55.2	35.9	0.0
2021 03/03 18:15	38.2	70.6	300.4	11.5	29.77	56.0	7.8	13.01	-137.2	0	95.3	37.1	41.7	0	0	0	0	0	54.6	35.9	0.0
2021 03/03 18:30	37.4	72.5	306.8	11.5	29.77	56.3	0.7	13.03	-137.2	0	95.3	37.1	40.7	0	0	0	0	0	53.8	35.9	0.0
2021 03/03 18:45	37.6	71.7	288.4	8.2	29.78	56.5	0.0	13.03	-137.2	0	95.6	36.2	40.4	0	0	0	0	0	53.0	35.8	0.0
2021 03/03 19:00	37.7	70.9	310.0	7.9	29.78	56.7	0.0	13.03	-137.2	0	95.6	36.2	39.0	0	0	0	0	0	52.2	35.8	0.0
2021 03/03 19:15	37.7	71.1	292.3	7.7	29.79	56.9	0.0	13.01	-137.2	0	95.8	36.2	39.1	0	0	0	0	0	51.3	35.8	0.0
2021 03/03 19:30	38.4	71.9	265.9	8.2	29.79	57.1	0.0	13.00	-137.2	0	95.5	36.2	39.3	0	0	0	0	0	50.5	35.7	0.0
2021 03/03 19:45	38.3	69.3	246.0	6.7	29.80	57.3	0.0	13.03	-137.1	0	95.5	36.2	36.3	0	0	0	0	0	50.1	35.7	0.0
2021 03/03 20:00	38.4	64.4	255.3	6.5	29.80	57.4	0.0	13.00	-137.2	0	95.5	36.2	35.0	0	0	0	0	0	49.4	35.7	0.0
2021 03/03 20:15	38.5	62.1	233.5	6.9	29.80	57.6	0.0	13.03	-137.1	0	95.4	35.3	34.4	0	0	0	0	0	48.7	35.7	0.0
2021 03/03 20:30	37.8	65.3	266.4	3.2	29.81	57.6	0.0	13.01	-137.1	0	95.4	35.3	33.0	0	0	0	0	0	47.9	35.5	0.0
2021 03/03 20:45	37.3	70.1	324.4	1.9	29.81	57.6	0.0	13.00	-137.1	0	95.6	36.2	32.3	0	0	0	0	0	47.1	35.5	0.0
2021 03/03 21:00	39.3	50.2	240.8	2.1	29.82	57.6	0.0	13.03	-137.1	0	95.4	35.3	32.0	0	0	0	0	0	46.5	35.4	0.0

Where:
  YYYY   = Year
  MM/DD  = Month / Date
  hh:mm  = Hour  : Minute
  Temp   = Temperature outside       (F)              @ 5720', on tower
  Humid  = Humidity    outside       (%)              @ 5720'
  W_dir  = Wind direction / Azimuth  (degrees)        @ 5720'
  W_spd  = Wind speed                (miles per hour) @ 5720'
  Barom  = Sea-level air pressure    (inches of mercury)
  T_int  = Temperature (internal)    (F)              - inside barometer case
  Light  = Outside light level       (no units)       - 0 = dark, 1000 = bright
  Power  = Power supply rail         (Volts)
  Temp2  = Temperature (back-up)     (F)
  P2     = datalogger counter channel "P2" (to be static burst counter)
  Snow   = Snow depth,  mid-mountain (inches)         @ 5010'
  T_mid  = Temperature, mid-mountain (F)              @ 5010'
  T_base = Temperature @ south lodge (F)              @ 4700'
  Precip = Precipitation total       (inches)         @ 4800' (near US20 mp81)

Notes:
1999 07/17
   Barometric data in this listing should have an additional
   temperature correction applied to it, based on the sensor's
   internal temperature:

   P_corrected = Barom + (-0.0223 * T_int) + 0.8887  (inches Hg)

2004 07/03
   The air pressure correction equation has not been checked
   in a long time.  The air pressure reading is best used only
   to observe general trends.

2006 11/18
   Added precipitation gauge.  Depth is precipitation equivalent in water,
   for the water year (beginning October 1st) at the Hogg Pass
   SnoTel station.

2011 03/11
  Fixed data column title bug from adding "T_base" after "T_mid".
  If you notice a bug like this it will get fixed a whole lot sooner
  if you tell me about it.